M I D A S
Marine Information and Data Acquisition System
Tripno 728 of the Zeeleeuw from 2004-06-03 06:30:24 to 2004-06-03 12:07:08
Back to CruiseResearch ActivitiesStationsMapUnderway DataData graphs

EquipmentUnitsComment
TimeDGPSUTC
LatitudeDGPSDM.mWGS84
LongitudeDGPSDM.mWGS84
TemperatureSBE03/SBE38deg celciusITS90
ConductivitySBE21S/mITS90
SalinitySBE21 Practical Salinity Units
ChlorophylAChelsea fluorimeterg/lCalibrated in Aceton
Missing or incorrect values are displayed as -999
Sea surface data collected by the RV Zeeleeuw from 2004-06-03 06:30:24 to 2004-06-03 12:07:08
                                                                                    Next 1000 lines
Time Latitude Longitude Temperature Conductivity Salinity ChlorophylA
2004-06-03 06:30:34 51°13.609 2°56.049 21.320673 0.12743 0.65315 8.927059
2004-06-03 06:30:40 51°13.612 2°56.039 21.3169 0.12743 0.653169 8.927059
2004-06-03 06:30:45 51°13.614 2°56.03 21.316185 0.127534 0.653744 8.927059
2004-06-03 06:30:50 51°13.617 2°56.021 21.322024 0.12743 0.653198 8.927059
2004-06-03 06:30:54 51°13.619 2°56.013 21.322024 0.12743 0.653198 8.927059
2004-06-03 06:31:00 51°13.621 2°56.001 21.32258 0.12743 0.653207 8.927059
2004-06-03 06:31:04 51°13.623 2°55.993 21.321507 0.12743 0.653198 8.893349
2004-06-03 06:31:09 51°13.626 2°55.983 21.324089 0.12743 0.653188 8.927059
2004-06-03 06:31:14 51°13.629 2°55.973 21.320435 0.12743 0.653169 8.927059
2004-06-03 06:31:20 51°13.632 2°55.96 21.333024 0.12743 0.653159 8.927059
2004-06-03 06:31:24 51°13.635 2°55.951 21.333024 0.12743 0.653159 8.927059
2004-06-03 06:31:29 51°13.638 2°55.941 21.337551 0.12743 0.65315 8.927059
2004-06-03 06:31:34 51°13.641 2°55.93 21.369745 0.12743 0.653169 8.927059
2004-06-03 06:31:40 51°13.645 2°55.917 21.3628 0.12743 0.653179 8.893349
2004-06-03 06:31:44 51°13.648 2°55.909 21.361966 0.127534 0.653754 8.927059
2004-06-03 06:31:50 51°13.652 2°55.896 21.356131 0.12743 0.653217 8.927059
2004-06-03 06:31:54 51°13.655 2°55.888 21.356131 0.12743 0.653217 8.927059
2004-06-03 06:32:00 51°13.659 2°55.875 21.35752 0.12743 0.653226 8.927059
2004-06-03 06:32:04 51°13.661 2°55.867 21.355218 0.12743 0.653236 8.927059
2004-06-03 06:32:09 51°13.664 2°55.856 21.350851 0.12743 0.653226 8.927059
2004-06-03 06:32:14 51°13.667 2°55.845 21.346961 0.12743 0.653217 8.927059
2004-06-03 06:32:19 51°13.67 2°55.834 21.344062 0.127534 0.653763 8.927059
2004-06-03 06:32:25 51°13.673 2°55.821 21.344062 0.127534 0.653763 8.927059
2004-06-03 06:32:30 51°13.675 2°55.81 21.346246 0.127534 0.653763 8.927059
2004-06-03 06:32:34 51°13.677 2°55.801 21.344658 0.127534 0.653773 8.927059
2004-06-03 06:32:40 51°13.679 2°55.789 21.352638 0.12743 0.653217 8.927059
2004-06-03 06:32:44 51°13.681 2°55.781 21.348707 0.12743 0.653245 8.927059
2004-06-03 06:32:49 51°13.683 2°55.772 21.411962 0.127534 0.653801 8.927059
2004-06-03 06:32:54 51°13.684 2°55.764 21.411962 0.127534 0.653801 8.927059
2004-06-03 06:32:58 51°13.685 2°55.759 21.384826 0.12743 0.653264 8.893349
2004-06-03 06:33:04 51°13.686 2°55.753 21.395459 0.12743 0.653283 8.893349
2004-06-03 06:33:09 51°13.687 2°55.75 21.432624 0.127326 0.652699 8.893349
2004-06-03 06:33:14 51°13.687 2°55.749 21.427548 0.127326 0.65268 8.893349
2004-06-03 06:33:19 51°13.688 2°55.75 21.453955 0.12743 0.653245 8.893349
2004-06-03 06:33:24 51°13.689 2°55.752 21.453955 0.12743 0.653245 8.893349
2004-06-03 06:33:29 51°13.69 2°55.754 21.463785 0.127326 0.652708 8.927059
2004-06-03 06:33:34 51°13.692 2°55.758 21.479241 0.12743 0.653312 8.893349
2004-06-03 06:33:39 51°13.694 2°55.762 21.498458 0.12743 0.65335 8.927059
2004-06-03 06:33:44 51°13.697 2°55.766 21.459861 0.12743 0.653359 8.893349
2004-06-03 06:33:49 51°13.699 2°55.769 21.37304 0.12743 0.653331 8.893349
2004-06-03 06:33:54 51°13.702 2°55.771 21.37304 0.12743 0.653331 8.893349
2004-06-03 06:33:59 51°13.703 2°55.773 21.292867 0.12743 0.653283 8.893349
2004-06-03 06:34:04 51°13.704 2°55.774 21.297038 0.12743 0.653245 8.927059
2004-06-03 06:34:09 51°13.704 2°55.774 21.333103 0.12743 0.653236 8.893349
2004-06-03 06:34:13 51°13.703 2°55.773 21.21845 0.12743 0.653236 8.927059
2004-06-03 06:34:19 51°13.702 2°55.772 21.387048 0.12743 0.653274 8.927059
2004-06-03 06:34:24 51°13.7 2°55.77 21.387048 0.12743 0.653274 8.927059
2004-06-03 06:34:29 51°13.699 2°55.768 21.364943 0.12743 0.653321 8.927059
2004-06-03 06:34:34 51°13.696 2°55.766 21.332547 0.12743 0.653359 8.893349
2004-06-03 06:34:40 51°13.694 2°55.762 21.352399 0.12743 0.653397 8.893349
2004-06-03 06:34:45 51°13.691 2°55.759 21.343745 0.12743 0.653417 8.893349
2004-06-03 06:34:49 51°13.689 2°55.757 21.361966 0.12743 0.653426 8.893349
2004-06-03 06:34:54 51°13.686 2°55.753 21.361966 0.12743 0.653426 8.893349
2004-06-03 06:35:00 51°13.683 2°55.75 21.385818 0.12743 0.653436 8.927059
2004-06-03 06:35:05 51°13.682 2°55.748 21.403235 0.127534 0.653992 8.927059
2004-06-03 06:35:10 51°13.683 2°55.748 21.499607 0.12743 0.653417 8.893349
2004-06-03 06:35:14 51°13.684 2°55.748 21.505747 0.127222 0.652304 8.927059
2004-06-03 06:35:20 51°13.688 2°55.748 19.954777 0.127742 0.660533 19.54552
2004-06-03 06:35:25 51°13.693 2°55.747 19.954777 0.127742 0.660533 19.54552
2004-06-03 06:35:30 51°13.698 2°55.745 18.580248 0.493217 2.736552 24.837896
2004-06-03 06:35:34 51°13.703 2°55.742 17.728185 0.76241 4.349971 30.298819
2004-06-03 06:35:39 51°13.709 2°55.738 17.485336 2.002913 12.580774 24.197418
2004-06-03 06:35:44 51°13.715 2°55.733 17.293014 2.700355 18.029179 25.107571
2004-06-03 06:35:48 51°13.719 2°55.729 17.159275 3.352593 23.467496 28.208836
2004-06-03 06:35:54 51°13.725 2°55.723 17.159275 3.352593 23.467496 28.208836
2004-06-03 06:35:59 51°13.732 2°55.717 17.0718 3.412958 24.480397 29.961725
2004-06-03 06:36:04 51°13.738 2°55.71 17.051074 3.399378 24.773645 32.692187
2004-06-03 06:36:09 51°13.745 2°55.704 17.027091 3.354196 24.680338 30.534785
2004-06-03 06:36:12 51°13.75 2°55.699 16.965237 3.306065 24.438199 31.175264
2004-06-03 06:36:18 51°13.759 2°55.691 16.994481 3.254252 24.097286 32.456221
2004-06-03 06:36:24 51°13.77 2°55.683 16.994481 3.254252 24.097286 32.456221
2004-06-03 06:36:29 51°13.778 2°55.676 16.914622 3.264995 24.268039 30.80446
2004-06-03 06:36:34 51°13.788 2°55.668 16.901888 3.25436 24.227673 32.624768
2004-06-03 06:36:38 51°13.795 2°55.663 16.926042 3.255519 24.269944 29.523503
2004-06-03 06:36:44 51°13.807 2°55.655 16.911957 3.276266 24.471316 30.399947
2004-06-03 06:36:49 51°13.817 2°55.648 16.873409 3.242672 24.219581 31.782033
2004-06-03 06:36:54 51°13.827 2°55.642 16.873409 3.242672 24.219581 31.782033
2004-06-03 06:36:58 51°13.835 2°55.637 16.88272 3.232563 24.158884 30.602204
2004-06-03 06:37:04 51°13.848 2°55.629 16.875356 3.224665 24.105468 32.759606
2004-06-03 06:37:08 51°13.856 2°55.624 16.809171 3.220032 24.077238 31.95058
2004-06-03 06:37:14 51°13.869 2°55.616 16.81472 3.21919 24.087725 31.310101
2004-06-03 06:37:19 51°13.879 2°55.609 16.797985 3.220559 24.105152 32.017999
2004-06-03 06:37:24 51°13.89 2°55.602 16.797985 3.220559 24.105152 32.017999
2004-06-03 06:37:28 51°13.898 2°55.596 16.796333 3.208238 24.010296 31.782033
2004-06-03 06:37:34 51°13.911 2°55.588 16.801714 3.220875 24.130508 33.029281
2004-06-03 06:37:39 51°13.922 2°55.581 16.799468 3.224877 24.179416 31.849452
2004-06-03 06:37:44 51°13.933 2°55.574 16.765436 3.230142 24.231825 30.062853
2004-06-03 06:37:49 51°13.944 2°55.567 16.759416 3.236671 24.292554 30.433657
2004-06-03 06:37:54 51°13.955 2°55.56 16.759416 3.236671 24.292554 30.433657
2004-06-03 06:37:58 51°13.964 2°55.554 16.737027 3.23783 24.308343 30.130272
2004-06-03 06:38:04 51°13.977 2°55.546 16.732489 3.234881 24.28654 30.635913
2004-06-03 06:38:09 51°13.988 2°55.539 16.726678 3.236145 24.302764 31.782033
2004-06-03 06:38:14 51°13.999 2°55.532 16.711873 3.170753 23.772299 31.714614
2004-06-03 06:38:19 51°14.011 2°55.525 16.691761 3.209503 24.101164 31.074136
2004-06-03 06:38:24 51°14.022 2°55.518 16.691761 3.209503 24.101164 31.074136
2004-06-03 06:38:29 51°14.033 2°55.51 16.694816 3.234355 24.318877 31.512358
2004-06-03 06:38:34 51°14.044 2°55.502 16.689809 3.272373 24.643869 31.849452
2004-06-03 06:38:37 51°14.05 2°55.497 16.696514 3.284168 24.747921 30.568494
2004-06-03 06:38:44 51°14.065 2°55.485 16.688196 3.324084 25.088876 29.860597
2004-06-03 06:38:49 51°14.076 2°55.476 16.68548 3.336723 25.201276 29.051571
2004-06-03 06:38:54 51°14.087 2°55.467 16.68548 3.336723 25.201276 29.051571
2004-06-03 06:38:57 51°14.094 2°55.461 16.69244 3.347677 25.299249 29.489794
2004-06-03 06:39:04 51°14.11 2°55.447 16.694137 3.390968 25.66282 29.658341
2004-06-03 06:39:08 51°14.119 2°55.438 16.705467 3.351574 25.335062 30.096563
2004-06-03 06:39:14 51°14.133 2°55.424 16.704279 3.405504 25.789293 30.298819
2004-06-03 06:39:20 51°14.148 2°55.41 16.704958 3.426361 25.964639 29.422375
2004-06-03 06:39:25 51°14.16 2°55.398 16.704958 3.426361 25.964639 29.422375
2004-06-03 06:39:29 51°14.169 2°55.388 16.69698 3.393917 25.69268 29.11899
2004-06-03 06:39:34 51°14.181 2°55.375 16.682891 3.429205 25.98565 29.658341
2004-06-03 06:39:40 51°14.195 2°55.358 16.688323 3.417618 25.887531 29.793178
2004-06-03 06:39:44 51°14.204 2°55.347 16.679283 3.424676 25.946236 31.815742
2004-06-03 06:39:49 51°14.215 2°55.332 16.667864 3.399184 25.734453 30.096563
2004-06-03 06:39:54 51°14.226 2°55.316 16.667864 3.399184 25.734453 30.096563
2004-06-03 06:39:58 51°14.234 2°55.302 16.669265 3.388019 25.645147 29.894306
2004-06-03 06:40:04 51°14.246 2°55.282 16.657208 3.432893 26.021331 28.748187
2004-06-03 06:40:09 51°14.257 2°55.265 16.671218 3.430364 26.006769 29.793178
2004-06-03 06:40:14 51°14.267 2°55.247 16.653344 3.443848 26.124736 29.826888
2004-06-03 06:40:19 51°14.276 2°55.229 16.651943 3.463337 26.293769 31.444939
2004-06-03 06:40:24 51°14.286 2°55.211 16.651943 3.463337 26.293769 31.444939
2004-06-03 06:40:29 51°14.296 2°55.192 16.650881 3.443848 26.133811 30.568494
2004-06-03 06:40:34 51°14.307 2°55.173 16.646295 3.476506 26.410304 29.11899
2004-06-03 06:40:37 51°14.313 2°55.162 16.623997 3.437528 26.083577 30.534785
2004-06-03 06:40:44 51°14.328 2°55.135 16.62748 3.431524 26.036953 28.781896
2004-06-03 06:40:49 51°14.339 2°55.116 16.626673 3.477981 26.428997 29.69205
2004-06-03 06:40:54 51°14.351 2°55.098 16.626673 3.477981 26.428997 29.69205
2004-06-03 06:40:58 51°14.36 2°55.082 16.619663 3.479245 26.44254 29.321247
2004-06-03 06:41:04 51°14.373 2°55.059 16.612101 3.473767 26.403195 30.2314
2004-06-03 06:41:09 51°14.385 2°55.04 16.605685 3.469132 26.369971 29.624631
2004-06-03 06:41:14 51°14.397 2°55.021 16.598036 3.525389 26.846571 29.860597
2004-06-03 06:41:19 51°14.408 2°55 16.598036 3.548252 27.041575 29.658341
2004-06-03 06:41:24 51°14.418 2°54.978 16.598036 3.548252 27.041575 29.658341
2004-06-03 06:41:29 51°14.427 2°54.955 16.566115 3.551202 27.071456 29.826888
2004-06-03 06:41:32 51°14.431 2°54.94 16.536007 3.536347 26.948927 13.680084
2004-06-03 06:41:38 51°14.44 2°54.911 16.513035 3.494205 26.598683 12.736221
2004-06-03 06:41:44 51°14.449 2°54.88 16.470813 3.605043 27.541554 12.80364
2004-06-03 06:41:49 51°14.456 2°54.855 16.461957 3.505056 26.70244 13.073315
2004-06-03 06:41:54 51°14.461 2°54.828 16.461957 3.505056 26.70244 13.073315
2004-06-03 06:41:58 51°14.464 2°54.806 16.423198 3.620955 27.695716 13.410409
2004-06-03 06:42:04 51°14.469 2°54.773 16.375379 3.564162 27.23439 14.084597
2004-06-03 06:42:08 51°14.47 2°54.751 16.336273 3.632651 27.831763 14.725076
2004-06-03 06:42:14 51°14.473 2°54.717 16.288863 3.428049 26.117186 15.298136
2004-06-03 06:42:18 51°14.473 2°54.695 16.263416 3.624538 27.801137 15.432973
2004-06-03 06:42:24 51°14.472 2°54.662 16.263416 3.624538 27.801137 15.432973
2004-06-03 06:42:29 51°14.47 2°54.635 16.199201 3.561846 27.295478 15.60152
2004-06-03 06:42:33 51°14.468 2°54.614 16.167991 3.656995 28.13138 15.500392
2004-06-03 06:42:39 51°14.465 2°54.585 16.153749 3.637606 27.993298 15.230717
2004-06-03 06:42:44 51°14.462 2°54.562 16.119309 2.52569 18.741732 14.758785
2004-06-03 06:42:49 51°14.458 2°54.541 16.113831 3.878636 30.124055 14.185725
2004-06-03 06:42:54 51°14.455 2°54.521 16.113831 3.878636 30.124055 14.185725
2004-06-03 06:42:57 51°14.452 2°54.51 16.096624 3.902881 30.362383 13.511537
2004-06-03 06:43:04 51°14.447 2°54.485 16.080398 3.925756 30.584951 13.241862
2004-06-03 06:43:09 51°14.443 2°54.468 16.070506 3.944098 30.763542 13.073315
2004-06-03 06:43:14 51°14.439 2°54.453 16.05059 3.956854 30.895622 12.76993
2004-06-03 06:43:17 51°14.436 2°54.444 16.03311 3.967396 31.001743 12.635093
2004-06-03 06:43:24 51°14.431 2°54.425 16.03311 3.967396 31.001743 12.635093
2004-06-03 06:43:29 51°14.427 2°54.412 16.032467 3.975303 31.08273 12.466546
2004-06-03 06:43:34 51°14.423 2°54.399 16.013526 3.981734 31.15036 12.399127
2004-06-03 06:43:38 51°14.419 2°54.389 16.021069 3.987322 31.211285 12.297999
2004-06-03 06:43:44 51°14.415 2°54.376 16.002038 3.992171 31.26583 12.129452
2004-06-03 06:43:48 51°14.413 2°54.367 15.992821 3.995229 31.303611 12.129452
2004-06-03 06:43:54 51°14.409 2°54.353 15.992821 3.995229 31.303611 12.129452
2004-06-03 06:43:59 51°14.406 2°54.342 15.997065 3.997443 31.331716 11.960905
2004-06-03 06:44:04 51°14.403 2°54.332 15.990849 3.996916 31.329453 11.927195
2004-06-03 06:44:09 51°14.4 2°54.322 15.993421 4.001238 31.37776 11.826067
2004-06-03 06:44:14 51°14.398 2°54.312 15.984074 4.002504 31.395856 11.69123
2004-06-03 06:44:19 51°14.395 2°54.303 15.997065 4.000606 31.38455 11.69123
2004-06-03 06:44:24 51°14.393 2°54.293 15.997065 4.000606 31.38455 11.69123
2004-06-03 06:44:29 51°14.391 2°54.284 15.993207 4.003031 31.409859 11.522683
2004-06-03 06:44:34 51°14.389 2°54.275 15.972839 4.002925 31.410699 11.522683
2004-06-03 06:44:37 51°14.388 2°54.27 15.970609 4.002715 31.411205 11.488973
2004-06-03 06:44:44 51°14.385 2°54.258 15.974554 4.002504 31.412887 11.65752
2004-06-03 06:44:49 51°14.384 2°54.249 15.968765 4.003347 31.419675 11.556392
2004-06-03 06:44:54 51°14.382 2°54.241 15.968765 4.003347 31.419675 11.556392
2004-06-03 06:44:57 51°14.381 2°54.236 15.958514 4.004296 31.431501 11.455264
2004-06-03 06:45:04 51°14.378 2°54.225 15.970309 4.005456 31.446941 11.455264
2004-06-03 06:45:09 51°14.377 2°54.217 15.961988 4.005034 31.445016 11.421554
2004-06-03 06:45:14 51°14.375 2°54.21 15.951993 4.006194 31.460462 11.320426
2004-06-03 06:45:19 51°14.373 2°54.202 15.949419 4.007248 31.47499 11.387845
2004-06-03 06:45:24 51°14.372 2°54.195 15.949419 4.007248 31.47499 11.387845
2004-06-03 06:45:29 51°14.37 2°54.187 15.944056 4.00651 31.466763 11.421554
2004-06-03 06:45:33 51°14.369 2°54.182 15.9447 4.004823 31.453766 11.286717
2004-06-03 06:45:36 51°14.368 2°54.177 15.944957 4.007037 31.479038 11.354136
2004-06-03 06:45:44 51°14.365 2°54.166 15.943971 4.007776 31.489626 11.286717
2004-06-03 06:45:49 51°14.364 2°54.159 15.939466 4.004507 31.465136 11.320426
2004-06-03 06:45:54 51°14.363 2°54.152 15.939466 4.004507 31.465136 11.320426
2004-06-03 06:45:59 51°14.361 2°54.146 15.945858 4.008408 31.501065 11.219298
2004-06-03 06:46:04 51°14.359 2°54.139 15.94204 4.005351 31.476648 11.219298
2004-06-03 06:46:09 51°14.358 2°54.133 15.936162 4.005456 31.477571 11.387845
2004-06-03 06:46:14 51°14.356 2°54.126 15.934445 4.007987 31.500912 11.286717
2004-06-03 06:46:18 51°14.355 2°54.121 15.944443 4.008514 31.506709 11.320426
2004-06-03 06:46:24 51°14.353 2°54.114 15.944443 4.008514 31.506709 11.320426
2004-06-03 06:46:29 51°14.352 2°54.108 15.947489 4.002504 31.454667 11.320426
2004-06-03 06:46:34 51°14.351 2°54.102 15.94101 4.007354 31.499502 11.253007
2004-06-03 06:46:38 51°14.35 2°54.097 15.936505 4.003559 31.466258 11.455264
2004-06-03 06:46:44 51°14.348 2°54.09 15.935261 4.007565 31.501349 11.421554
2004-06-03 06:46:49 51°14.347 2°54.085 15.933244 3.997866 31.416989 11.488973
2004-06-03 06:46:54 51°14.346 2°54.079 15.933244 3.997866 31.416989 11.488973
2004-06-03 06:46:57 51°14.345 2°54.076 15.930884 4.006616 31.493038 11.286717
2004-06-03 06:47:04 51°14.343 2°54.068 15.928781 4.008514 31.512023 11.354136
2004-06-03 06:47:09 51°14.342 2°54.061 15.927064 4.00767 31.506996 11.455264
2004-06-03 06:47:13 51°14.341 2°54.055 15.922944 4.007143 31.504148 11.488973
2004-06-03 06:47:19 51°14.339 2°54.043 15.922944 4.005562 31.490883 11.590101
2004-06-03 06:47:24 51°14.336 2°54.031 15.922944 4.005562 31.490883 11.590101
2004-06-03 06:47:29 51°14.333 2°54.017 15.922258 4.008198 31.516339 11.724939
2004-06-03 06:47:32 51°14.331 2°54.008 15.923374 4.003453 31.47477 11.826067
2004-06-03 06:47:38 51°14.325 2°53.988 15.923159 4.006616 31.506025 11.927195
2004-06-03 06:47:44 51°14.319 2°53.966 15.925691 4.004086 31.485624 11.960905
2004-06-03 06:47:49 51°14.313 2°53.946 15.918567 4.007038 31.512675 11.994614
2004-06-03 06:47:54 51°14.305 2°53.925 15.918567 4.007038 31.512675 11.994614
2004-06-03 06:47:57 51°14.301 2°53.912 15.914918 4.000818 31.458756 12.23058
2004-06-03 06:48:04 51°14.289 2°53.882 15.917322 4.007881 31.521249 12.331708
2004-06-03 06:48:09 51°14.28 2°53.859 15.915691 4.007776 31.522098 12.331708
2004-06-03 06:48:13 51°14.272 2°53.842 15.91685 4.005668 31.504207 12.500255
2004-06-03 06:48:18 51°14.263 2°53.819 15.914918 4.008092 31.526644 12.533965
2004-06-03 06:48:24 51°14.252 2°53.792 15.914918 4.008092 31.526644 12.533965
2004-06-03 06:48:29 51°14.243 2°53.77 15.912472 4.007565 31.524387 12.635093
2004-06-03 06:48:34 51°14.234 2°53.746 15.907235 3.99017 31.372533 12.668802
2004-06-03 06:48:38 51°14.226 2°53.728 15.906419 4.007565 31.524978 12.80364
2004-06-03 06:48:44 51°14.215 2°53.699 15.908737 4.007987 31.528675 12.702512
2004-06-03 06:48:49 51°14.205 2°53.676 15.907364 3.999869 31.458699 12.76993
2004-06-03 06:48:54 51°14.195 2°53.65 15.907364 3.999869 31.458699 12.76993
2004-06-03 06:48:59 51°14.185 2°53.626 15.907836 4.008198 31.532298 12.702512
2004-06-03 06:49:04 51°14.174 2°53.601 15.905303 4.007776 31.530375 12.837349
2004-06-03 06:49:09 51°14.164 2°53.575 15.899851 4.006722 31.522314 12.736221
2004-06-03 06:49:12 51°14.157 2°53.56 15.895686 3.99755 31.441911 12.736221
2004-06-03 06:49:19 51°14.142 2°53.524 15.894656 4.005879 31.518467 12.837349
2004-06-03 06:49:24 51°14.132 2°53.498 15.894656 4.005879 31.518467 12.837349
2004-06-03 06:49:29 51°14.121 2°53.472 15.886197 4.00493 31.508374 12.837349
2004-06-03 06:49:34 51°14.11 2°53.446 15.886455 4.004508 31.507631 12.76993
2004-06-03 06:49:39 51°14.099 2°53.42 15.885167 4.00493 31.513694 12.76993
2004-06-03 06:49:44 51°14.089 2°53.392 15.882375 4.005246 31.51765 12.702512
2004-06-03 06:49:49 51°14.078 2°53.366 15.87851 4.005668 31.526081 12.635093
2004-06-03 06:49:54 51°14.068 2°53.339 15.880958 4.004825 31.522232 12.76993
2004-06-03 06:49:58 51°14.06 2°53.317 15.880958 4.004825 31.522232 12.76993
2004-06-03 06:50:04 51°14.047 2°53.284 15.877093 4.00493 31.524341 12.668802
2004-06-03 06:50:08 51°14.039 2°53.262 15.876664 4.005457 31.531924 12.635093
2004-06-03 06:50:14 51°14.026 2°53.23 15.861932 4.004508 31.525375 12.668802
2004-06-03 06:50:19 51°14.014 2°53.204 15.855917 4.004298 31.524709 12.871059
2004-06-03 06:50:24 51°14.003 2°53.177 15.855917 4.004298 31.524709 12.871059
2004-06-03 06:50:29 51°13.991 2°53.151 15.847411 4.003032 31.511835 12.938477
2004-06-03 06:50:34 51°13.979 2°53.125 15.856433 4.004192 31.526151 13.107024
2004-06-03 06:50:38 51°13.97 2°53.105 15.855488 4.004298 31.530628 13.275571
2004-06-03 06:50:44 51°13.956 2°53.076 15.86438 4.00472 31.541437 13.511537
2004-06-03 06:50:49 51°13.945 2°53.053 15.848055 4.00493 31.547435 13.814922
2004-06-03 06:50:54 51°13.934 2°53.03 15.848055 4.00493 31.547435 13.814922
2004-06-03 06:50:58 51°13.925 2°53.013 15.848184 4.004193 31.545105 14.050888
2004-06-03 06:51:04 51°13.912 2°52.99 15.845392 4.00356 31.538366 14.017178
2004-06-03 06:51:09 51°13.902 2°52.972 15.842427 4.003033 31.532554 14.185725
2004-06-03 06:51:14 51°13.893 2°52.957 15.84204 4.003455 31.539219 14.286853
2004-06-03 06:51:19 51°13.883 2°52.942 15.838302 4.003876 31.54707 14.320563
2004-06-03 06:51:24 51°13.875 2°52.929 15.838302 4.003876 31.54707 14.320563
2004-06-03 06:51:29 51°13.868 2°52.916 15.838946 4.003876 31.548849 14.286853
2004-06-03 06:51:34 51°13.862 2°52.903 15.837313 4.003982 31.552146 14.219435
2004-06-03 06:51:39 51°13.856 2°52.891 15.84436 4.003876 31.551814 14.219435
2004-06-03 06:51:44 51°13.851 2°52.879 15.841696 4.003876 31.554186 14.185725
2004-06-03 06:51:48 51°13.848 2°52.87 15.843243 4.00356 31.552001 14.253144
2004-06-03 06:51:54 51°13.844 2°52.857 15.843243 4.00356 31.552001 14.253144
2004-06-03 06:51:59 51°13.841 2°52.847 15.839849 4.003876 31.554186 14.657657
2004-06-03 06:52:04 51°13.838 2°52.838 15.84754 4.003349 31.548963 15.163298
2004-06-03 06:52:08 51°13.837 2°52.832 15.840278 4.004193 31.556964 14.927332
2004-06-03 06:52:14 51°13.834 2°52.825 15.84247 4.003771 31.553853 14.792494
2004-06-03 06:52:18 51°13.833 2°52.822 15.836927 4.003666 31.552927 14.792494
2004-06-03 06:52:24 51°13.831 2°52.819 15.836927 4.003666 31.552927 14.792494
2004-06-03 06:52:28 51°13.829 2°52.818 15.836798 4.003244 31.54863 14.792494
2004-06-03 06:52:34 51°13.827 2°52.819 15.84088 4.003033 31.546186 14.826204
2004-06-03 06:52:38 51°13.826 2°52.819 15.837915 4.002822 31.544927 14.961042
2004-06-03 06:52:44 51°13.824 2°52.82 15.838345 4.002822 31.547299 15.095879
2004-06-03 06:52:49 51°13.822 2°52.819 15.83697 4.002611 31.545447 15.197007
2004-06-03 06:52:54 51°13.821 2°52.816 15.83697 4.002611 31.545447 15.197007
2004-06-03 06:53:00 51°13.818 2°52.81 15.836841 4.002822 31.547892 15.264426
2004-06-03 06:53:04 51°13.817 2°52.806 15.836024 4.002506 31.545707 15.197007
2004-06-03 06:53:10 51°13.815 2°52.8 15.837829 4.002401 31.545967 15.163298
2004-06-03 06:53:14 51°13.813 2°52.796 15.838774 4.002084 31.543189 15.129589
2004-06-03 06:53:20 51°13.811 2°52.79 15.835766 4.002506 31.546893 15.298136
2004-06-03 06:53:24 51°13.809 2°52.786 15.835766 4.002506 31.546893 15.298136
2004-06-03 06:53:29 51°13.808 2°52.781 15.839247 4.002084 31.543782 15.500392
2004-06-03 06:53:34 51°13.806 2°52.776 15.838431 4.002084 31.544375 15.871195
2004-06-03 06:53:39 51°13.804 2°52.771 15.840493 4.001768 31.542783 16.17458
2004-06-03 06:53:44 51°13.802 2°52.766 15.83856 4.001979 31.544042 16.343127
2004-06-03 06:53:48 51°13.8 2°52.762 15.836798 4.001979 31.544042 16.410546
2004-06-03 06:53:54 51°13.798 2°52.757 15.836798 4.001979 31.544042 16.410546
2004-06-03 06:53:58 51°13.797 2°52.753 15.839376 4.001768 31.54219 16.410546
2004-06-03 06:54:04 51°13.794 2°52.747 15.838216 4.001873 31.542523 16.444255
2004-06-03 06:54:09 51°13.793 2°52.742 15.835165 4.002084 31.544375 16.612802
2004-06-03 06:54:14 51°13.791 2°52.737 15.835165 4.001979 31.544042 16.646512
2004-06-03 06:54:19 51°13.789 2°52.733 15.839204 3.992491 31.45953 16.815059
2004-06-03 06:54:24 51°13.787 2°52.729 15.839204 3.992491 31.45953 16.815059
2004-06-03 06:54:29 51°13.785 2°52.726 15.838388 4.00219 31.544115 17.051024
2004-06-03 06:54:34 51°13.784 2°52.725 15.839462 4.00219 31.545894 17.28699
2004-06-03 06:54:39 51°13.782 2°52.725 15.840107 4.002295 31.547413 17.489247
2004-06-03 06:54:44 51°13.78 2°52.725 15.844532 4.00219 31.545894 17.590375
2004-06-03 06:54:49 51°13.779 2°52.725 15.839849 4.002084 31.544968 17.522956
2004-06-03 06:54:54 51°13.777 2°52.724 15.839849 4.002084 31.544968 17.522956
2004-06-03 06:55:00 51°13.775 2°52.724 15.836927 4.002506 31.548079 17.455537
2004-06-03 06:55:05 51°13.773 2°52.724 15.839462 4.002084 31.544375 17.354409
2004-06-03 06:55:10 51°13.772 2°52.724 15.839204 4.002401 31.544781 17.253281
2004-06-03 06:55:14 51°13.77 2°52.723 15.844962 4.002401 31.544781 17.152153
2004-06-03 06:55:17 51°13.769 2°52.723 15.838474 4.002822 31.550857 17.118443
2004-06-03 06:55:24 51°13.767 2°52.722 15.838474 4.002822 31.550857 17.118443
2004-06-03 06:55:29 51°13.766 2°52.721 15.83538 4.002506 31.549265 17.152153
2004-06-03 06:55:32 51°13.765 2°52.721 15.836411 4.002401 31.548933 17.354409
2004-06-03 06:55:38 51°13.763 2°52.72 15.8377 4.002295 31.54682 17.556665
2004-06-03 06:55:44 51°13.761 2°52.719 15.839505 4.002506 31.548672 17.826341
2004-06-03 06:55:49 51°13.759 2°52.718 15.834477 4.001979 31.544635 18.062306
2004-06-03 06:55:54 51°13.758 2°52.717 15.834477 4.001979 31.544635 18.062306
2004-06-03 06:55:58 51°13.757 2°52.716 15.833016 4.002084 31.546747 18.264563
2004-06-03 06:56:04 51°13.755 2°52.715 15.835766 4.001979 31.544635 18.365691
2004-06-03 06:56:09 51°13.753 2°52.714 15.833876 4.001663 31.543043 18.331982
2004-06-03 06:56:14 51°13.752 2°52.713 15.834821 4.001768 31.543969 18.298272
2004-06-03 06:56:18 51°13.75 2°52.712 15.834434 4.001979 31.545821 18.365691
2004-06-03 06:56:24 51°13.748 2°52.71 15.834434 4.001979 31.545821 18.365691
2004-06-03 06:56:29 51°13.747 2°52.709 15.835509 4.001979 31.546414 18.298272
2004-06-03 06:56:33 51°13.746 2°52.708 15.833016 4.001874 31.546081 18.230853
2004-06-03 06:56:39 51°13.744 2°52.706 15.8322 4.001768 31.545748 18.197144
2004-06-03 06:56:44 51°13.742 2°52.705 15.832286 4.001768 31.545155 18.096016
2004-06-03 06:56:49 51°13.74 2°52.703 15.837958 4.001663 31.544229 18.197144
2004-06-03 06:56:54 51°13.738 2°52.701 15.837958 4.001663 31.544229 18.197144
2004-06-03 06:56:58 51°13.737 2°52.7 15.834262 4.001768 31.545748 18.129725
2004-06-03 06:57:04 51°13.735 2°52.698 15.833833 4.001768 31.546935 18.264563
2004-06-03 06:57:09 51°13.733 2°52.696 15.834348 4.001557 31.545676 18.298272
2004-06-03 06:57:14 51°13.731 2°52.694 15.836024 4.001452 31.544156 18.331982
2004-06-03 06:57:18 51°13.73 2°52.692 15.834692 4.001557 31.543303 18.365691
2004-06-03 06:57:24 51°13.728 2°52.69 15.834692 4.001557 31.543303 18.365691
2004-06-03 06:57:29 51°13.726 2°52.687 15.834993 4.001241 31.542304 18.43311
2004-06-03 06:57:34 51°13.724 2°52.685 15.837142 4.001346 31.542637 18.3994
2004-06-03 06:57:39 51°13.722 2°52.683 15.834563 4.001557 31.544489 18.466819
2004-06-03 06:57:44 51°13.721 2°52.68 15.834434 4.001452 31.54297 18.43311
2004-06-03 06:57:48 51°13.719 2°52.679 15.833876 4.001136 31.540192 18.43311
2004-06-03 06:57:54 51°13.717 2°52.676 15.833059 4.001557 31.543896 18.43311
2004-06-03 06:57:59 51°13.715 2°52.673 15.833059 4.001557 31.543896 18.43311
2004-06-03 06:58:04 51°13.713 2°52.67 15.833274 4.00103 31.539859 18.466819
2004-06-03 06:58:08 51°13.711 2°52.667 15.835724 4.001241 31.541711 18.466819
2004-06-03 06:58:14 51°13.709 2°52.663 15.836153 4.001241 31.541711 18.534238
2004-06-03 06:58:19 51°13.707 2°52.66 15.832844 4.001452 31.544156 18.43311
2004-06-03 06:58:24 51°13.704 2°52.656 15.832844 4.001452 31.544156 18.43311
2004-06-03 06:58:29 51°13.702 2°52.652 15.836497 4.001136 31.540192 18.43311
2004-06-03 06:58:34 51°13.7 2°52.648 15.837056 4.001241 31.542304 18.43311
2004-06-03 06:58:37 51°13.698 2°52.645 15.834649 4.000819 31.538006 18.43311
2004-06-03 06:58:44 51°13.695 2°52.639 15.836368 4.00103 31.540452 18.534238
2004-06-03 06:58:49 51°13.693 2°52.634 15.835595 4.00103 31.540452 18.500529
2004-06-03 06:58:54 51°13.69 2°52.629 15.835595 4.00103 31.540452 18.500529
2004-06-03 06:58:59 51°13.688 2°52.623 15.838989 4.001136 31.540192 18.534238
2004-06-03 06:59:04 51°13.685 2°52.618 15.836626 4.001452 31.544156 18.43311
2004-06-03 06:59:09 51°13.683 2°52.612 15.837614 4.000925 31.539525 18.43311
2004-06-03 06:59:14 51°13.68 2°52.607 15.842942 4.001241 31.541711 18.365691
2004-06-03 06:59:18 51°13.678 2°52.602 15.844103 4.000714 31.536487 18.197144
2004-06-03 06:59:24 51°13.675 2°52.595 15.844103 4.000714 31.536487 18.197144
2004-06-03 06:59:28 51°13.673 2°52.59 15.846552 4.000608 31.534968 17.961178
2004-06-03 06:59:34 51°13.67 2°52.582 15.846208 4.000819 31.537413 17.624084
2004-06-03 06:59:38 51°13.668 2°52.576 15.848743 4.000819 31.535634 17.522956
2004-06-03 06:59:44 51°13.665 2°52.569 15.849473 4.001136 31.536634 17.354409
2004-06-03 06:59:48 51°13.663 2°52.563 15.848399 4.001241 31.535781 17.185862
2004-06-03 06:59:54 51°13.659 2°52.555 15.848399 4.001241 31.535781 17.185862
2004-06-03 06:59:59 51°13.657 2°52.548 15.846294 4.001452 31.53704 16.949896
2004-06-03 07:00:04 51°13.654 2°52.542 15.848786 4.001241 31.53341 16.916187
2004-06-03 07:00:08 51°13.652 2°52.536 15.847497 4.001135 31.531891 16.815059
2004-06-03 07:00:14 51°13.648 2°52.528 15.848055 4.000925 31.528854 16.74764
2004-06-03 07:00:18 51°13.646 2°52.523 15.851664 4.00103 31.530965 16.646512
2004-06-03 07:00:24 51°13.643 2°52.514 15.851664 4.00103 31.530965 16.646512
2004-06-03 07:00:28 51°13.641 2°52.509 15.849903 4.000925 31.530039 16.646512
2004-06-03 07:00:33 51°13.638 2°52.502 15.850977 4.000608 31.527261 16.680221
2004-06-03 07:00:39 51°13.635 2°52.494 15.850418 4.000503 31.526336 16.74764
2004-06-03 07:00:44 51°13.632 2°52.487 15.847755 4.000503 31.525743 16.848768
2004-06-03 07:00:49 51°13.629 2°52.48 15.849731 4.000292 31.523299 16.815059
2004-06-03 07:00:54 51°13.626 2°52.473 15.849731 4.000292 31.523299 16.815059
2004-06-03 07:00:59 51°13.623 2°52.467 15.85102 4.000292 31.523299 16.815059
2004-06-03 07:01:04 51°13.621 2°52.46 15.85059 4.000292 31.523299 16.815059
2004-06-03 07:01:08 51°13.619 2°52.455 15.852352 4.000187 31.523558 16.848768
2004-06-03 07:01:14 51°13.615 2°52.447 15.851836 4.000081 31.521447 16.781349
2004-06-03 07:01:19 51°13.612 2°52.44 15.851321 3.999659 31.517151 16.74764
2004-06-03 07:01:24 51°13.609 2°52.433 15.851321 3.999659 31.517151 16.74764
2004-06-03 07:01:28 51°13.607 2°52.428 15.851707 3.999765 31.51867 16.815059
2004-06-03 07:01:32 51°13.605 2°52.422 15.850075 3.99987 31.519003 16.916187
2004-06-03 07:01:41 51°13.6 2°52.41 15.852953 3.999238 31.512856 16.848768
2004-06-03 07:01:47 51°13.597 2°52.403 15.852266 3.999132 31.511338 16.882477
2004-06-03 07:01:52 51°13.594 2°52.396 15.852567 3.999554 31.515633 16.815059
2004-06-03 07:01:57 51°13.591 2°52.39 15.854801 3.999238 31.512856 16.815059
2004-06-03 07:02:02 51°13.589 2°52.384 15.855101 3.999343 31.514374 16.848768
2004-06-03 07:02:06 51°13.587 2°52.379 15.856347 3.998921 31.510079 16.815059
2004-06-03 07:02:12 51°13.584 2°52.371 15.856347 3.998921 31.510079 16.815059
2004-06-03 07:02:17 51°13.581 2°52.365 15.853168 3.999132 31.51193 16.781349
2004-06-03 07:02:22 51°13.578 2°52.359 15.855488 3.999238 31.511671 16.781349
2004-06-03 07:02:24 51°13.577 2°52.357 15.853684 3.998605 31.504933 16.815059
2004-06-03 07:02:31 51°13.574 2°52.349 15.851836 3.998711 31.505859 16.71393
2004-06-03 07:02:37 51°13.57 2°52.341 15.852867 3.998711 31.505859 16.74764
2004-06-03 07:02:42 51°13.568 2°52.335 15.858452 3.998921 31.50771 16.781349
2004-06-03 07:02:47 51°13.566 2°52.329 15.858452 3.998921 31.50771 16.781349
2004-06-03 07:02:52 51°13.563 2°52.323 15.854886 3.998605 31.504341 16.74764
2004-06-03 07:02:57 51°13.561 2°52.318 15.853383 3.9985 31.504007 16.848768
2004-06-03 07:03:02 51°13.558 2°52.312 15.858968 3.998605 31.505525 16.983606
2004-06-03 07:03:07 51°13.556 2°52.306 15.852309 3.998605 31.505525 16.949896
2004-06-03 07:03:12 51°13.554 2°52.3 15.852309 3.998605 31.505525 16.949896
2004-06-03 07:03:17 51°13.552 2°52.295 15.851535 3.998605 31.504933 16.983606
2004-06-03 07:03:22 51°13.55 2°52.289 15.851321 3.9985 31.504599 16.983606
2004-06-03 07:03:26 51°13.548 2°52.285 15.850633 3.998394 31.504266 17.051024
2004-06-03 07:03:32 51°13.545 2°52.278 15.847024 3.998394 31.503082 16.983606
2004-06-03 07:03:37 51°13.543 2°52.272 15.847325 3.998605 31.506117 17.118443
2004-06-03 07:03:42 51°13.541 2°52.267 15.847325 3.998605 31.506117 17.118443
2004-06-03 07:03:44 51°13.54 2°52.265 15.847411 3.998289 31.504525 17.051024
2004-06-03 07:03:51 51°13.538 2°52.257 15.849602 3.998289 31.505117 17.084734
2004-06-03 07:03:57 51°13.535 2°52.251 15.846423 3.998289 31.506301 17.185862
2004-06-03 07:04:02 51°13.533 2°52.245 15.847239 3.998184 31.505375 17.219571
2004-06-03 07:04:06 51°13.532 2°52.241 15.847626 3.998289 31.506893 17.28699
2004-06-03 07:04:09 51°13.531 2°52.238 15.847626 3.998289 31.506893 17.28699
2004-06-03 07:04:17 51°13.528 2°52.23 15.845478 3.998289 31.506893 17.3207
2004-06-03 07:04:22 51°13.526 2°52.224 15.845048 3.998289 31.507486 17.388118
2004-06-03 07:04:24 51°13.525 2°52.222 15.84827 3.998605 31.510855 17.522956
2004-06-03 07:04:31 51°13.523 2°52.215 15.845263 3.998605 31.510855 17.624084
2004-06-03 07:04:37 51°13.521 2°52.209 15.844274 3.998816 31.513892 17.691503
2004-06-03 07:04:42 51°13.519 2°52.204 15.844274 3.998816 31.513892 17.691503
2004-06-03 07:04:47 51°13.517 2°52.199 15.8432 3.998816 31.514484 17.758922
2004-06-03 07:04:52 51°13.515 2°52.194 15.842427 3.998711 31.512966 17.792631
2004-06-03 07:04:57 51°13.513 2°52.189 15.842083 3.998711 31.512966 17.893759
2004-06-03 07:05:02 51°13.512 2°52.184 15.843329 3.998605 31.51204 18.028597
2004-06-03 07:05:04 51°13.511 2°52.182 15.842384 3.998816 31.515077 18.062306
2004-06-03 07:05:12 51°13.508 2°52.174 15.842384 3.998816 31.515077 18.062306
2004-06-03 07:05:17 51°13.506 2°52.169 15.843243 3.998816 31.515669 18.129725
2004-06-03 07:05:22 51°13.504 2°52.164 15.843673 3.998816 31.516262 18.062306
2004-06-03 07:05:24 51°13.504 2°52.162 15.844661 3.998605 31.515003 18.028597
2004-06-03 07:05:30 51°13.501 2°52.156 15.841568 3.998711 31.516521 18.028597
2004-06-03 07:05:36 51°13.499 2°52.151 15.842599 3.998711 31.515928 18.096016
2004-06-03 07:05:42 51°13.497 2°52.145 15.842599 3.998711 31.515928 18.096016
2004-06-03 07:05:44 51°13.496 2°52.143 15.844146 3.999238 31.519966 17.961178
2004-06-03 07:05:52 51°13.493 2°52.136 15.841825 3.998816 31.516854 18.028597
2004-06-03 07:05:56 51°13.491 2°52.132 15.845177 3.998816 31.516854 18.028597
2004-06-03 07:06:02 51°13.489 2°52.126 15.842083 3.998711 31.515336 17.826341
2004-06-03 07:06:04 51°13.488 2°52.124 15.842814 3.998605 31.515003 17.86005
2004-06-03 07:06:12 51°13.484 2°52.116 15.842814 3.998605 31.515003 17.86005
2004-06-03 07:06:16 51°13.483 2°52.113 15.840708 3.9985 31.514077 17.86005
2004-06-03 07:06:22 51°13.48 2°52.107 15.840923 3.998605 31.515003 17.961178
2004-06-03 07:06:26 51°13.479 2°52.104 15.841267 3.999027 31.518706 18.062306
2004-06-03 07:06:32 51°13.476 2°52.098 15.839333 3.998816 31.517447 18.062306
2004-06-03 07:06:37 51°13.474 2°52.094 15.840364 3.999027 31.518706 17.961178
2004-06-03 07:06:42 51°13.472 2°52.089 15.840364 3.999027 31.518706 17.961178
2004-06-03 07:06:47 51°13.47 2°52.085 15.840278 3.998922 31.518966 17.994888
2004-06-03 07:06:50 51°13.469 2°52.082 15.838646 3.998816 31.51804 17.961178
2004-06-03 07:06:57 51°13.467 2°52.076 15.839849 3.998711 31.518299 18.028597
2004-06-03 07:07:02 51°13.465 2°52.071 15.837829 3.998922 31.519558 17.994888
2004-06-03 07:07:06 51°13.463 2°52.068 15.839032 3.998922 31.520151 18.062306
2004-06-03 07:07:12 51°13.461 2°52.063 15.839032 3.998922 31.520151 18.062306
2004-06-03 07:07:17 51°13.459 2°52.059 15.835552 3.998922 31.521336 18.062306
2004-06-03 07:07:22 51°13.457 2°52.054 15.836497 3.999132 31.522003 18.129725
2004-06-03 07:07:26 51°13.456 2°52.051 15.836712 3.999133 31.523188 18.331982
2004-06-03 07:07:30 51°13.454 2°52.047 15.836196 3.998816 31.521003 18.331982
2004-06-03 07:07:37 51°13.451 2°52.041 15.834821 3.998816 31.521596 18.43311
2004-06-03 07:07:42 51°13.449 2°52.037 15.834821 3.998816 31.521596 18.43311
2004-06-03 07:07:46 51°13.448 2°52.034 15.837571 3.998711 31.521262 18.3994
2004-06-03 07:07:52 51°13.445 2°52.029 15.836583 3.999027 31.523448 18.365691
2004-06-03 07:07:56 51°13.444 2°52.026 15.837313 3.998816 31.522189 18.3994
2004-06-03 07:08:02 51°13.441 2°52.02 15.837614 3.998922 31.5243 18.466819
2004-06-03 07:08:06 51°13.44 2°52.017 15.83654 3.998395 31.519077 18.500529
2004-06-03 07:08:12 51°13.437 2°52.012 15.83654 3.998395 31.519077 18.500529
2004-06-03 07:08:17 51°13.435 2°52.008 15.835809 3.9985 31.520003 18.567947
2004-06-03 07:08:20 51°13.434 2°52.005 15.835724 3.998922 31.523115 18.601657
2004-06-03 07:08:24 51°13.432 2°52.002 15.836927 3.998816 31.522189 18.534238
2004-06-03 07:08:32 51°13.429 2°51.995 15.835809 3.999133 31.52556 18.635366
2004-06-03 07:08:37 51°13.427 2°51.991 15.833833 3.998922 31.5243 18.635366
2004-06-03 07:08:42 51°13.425 2°51.987 15.833833 3.998922 31.5243 18.635366
2004-06-03 07:08:44 51°13.425 2°51.986 15.832028 3.998922 31.523707 18.601657
2004-06-03 07:08:52 51°13.422 2°51.979 15.833489 3.998816 31.522781 18.601657
2004-06-03 07:08:56 51°13.42 2°51.976 15.832028 3.998816 31.521596 18.736494
2004-06-03 07:09:02 51°13.417 2°51.97 15.832501 3.998605 31.520929 18.635366
2004-06-03 07:09:04 51°13.417 2°51.969 15.833446 3.999238 31.527672 18.669076
2004-06-03 07:09:12 51°13.414 2°51.963 15.833446 3.999238 31.527672 18.669076
2004-06-03 07:09:16 51°13.412 2°51.959 15.833231 3.999027 31.527005 18.567947
2004-06-03 07:09:22 51°13.41 2°51.954 15.831383 3.999027 31.527005 18.567947
2004-06-03 07:09:26 51°13.408 2°51.951 15.832286 3.999027 31.528191 18.466819
2004-06-03 07:09:32 51°13.406 2°51.946 15.8322 3.999133 31.527931 18.500529
2004-06-03 07:09:37 51°13.404 2°51.942 15.83018 3.999133 31.528524 18.365691
2004-06-03 07:09:42 51°13.402 2°51.938 15.83018 3.999133 31.528524 18.365691
2004-06-03 07:09:46 51°13.4 2°51.935 15.832329 3.999133 31.528524 18.298272
2004-06-03 07:09:52 51°13.398 2°51.929 15.831727 3.999133 31.527931 18.230853
2004-06-03 07:09:57 51°13.396 2°51.925 15.828547 3.998922 31.527265 18.096016
2004-06-03 07:10:01 51°13.394 2°51.922 15.830739 3.999027 31.528191 17.961178
2004-06-03 07:10:07 51°13.392 2°51.917 15.832586 3.999133 31.52971 17.758922
2004-06-03 07:10:12 51°13.39 2°51.913 15.832586 3.999133 31.52971 17.758922
2004-06-03 07:10:17 51°13.388 2°51.909 15.830953 3.999133 31.529117 17.725212
2004-06-03 07:10:22 51°13.386 2°51.905 15.832071 3.999133 31.52971 17.893759
2004-06-03 07:10:25 51°13.384 2°51.902 15.831985 3.999027 31.529377 17.590375
2004-06-03 07:10:32 51°13.382 2°51.897 15.832329 3.999133 31.530303 17.590375
2004-06-03 07:10:36 51°13.38 2°51.894 15.829234 3.999133 31.52971 17.556665
2004-06-03 07:10:42 51°13.377 2°51.889 15.829234 3.999133 31.52971 17.556665
2004-06-03 07:10:46 51°13.376 2°51.885 15.829879 3.998922 31.527858 17.556665
2004-06-03 07:10:52 51°13.373 2°51.881 15.829063 3.998922 31.528451 17.624084
2004-06-03 07:10:57 51°13.371 2°51.877 15.82902 3.998711 31.525412 17.657794
2004-06-03 07:11:02 51°13.369 2°51.873 15.828805 3.999133 31.52971 17.657794
2004-06-03 07:11:07 51°13.367 2°51.869 15.829535 3.998816 31.527525 17.758922
2004-06-03 07:11:12 51°13.365 2°51.865 15.829535 3.998816 31.527525 17.758922
2004-06-03 07:11:17 51°13.363 2°51.861 15.830266 3.998922 31.529637 17.792631
2004-06-03 07:11:22 51°13.361 2°51.857 15.829063 3.998922 31.529044 17.826341
2004-06-03 07:11:27 51°13.359 2°51.853 15.830008 3.999027 31.52997 17.792631
2004-06-03 07:11:32 51°13.357 2°51.849 15.829063 3.998922 31.529044 17.86005
2004-06-03 07:11:36 51°13.356 2°51.846 15.828031 3.998606 31.526265 17.826341
2004-06-03 07:11:42 51°13.353 2°51.841 15.828031 3.998606 31.526265 17.826341
2004-06-03 07:11:46 51°13.351 2°51.837 15.826785 3.998711 31.527784 17.826341
2004-06-03 07:11:50 51°13.35 2°51.834 15.828547 3.998816 31.528118 17.86005
2004-06-03 07:11:57 51°13.347 2°51.828 15.827558 3.998816 31.528118 17.758922
2004-06-03 07:12:02 51°13.345 2°51.825 15.827902 3.999133 31.530896 17.691503
2004-06-03 07:12:07 51°13.343 2°51.82 15.827172 3.998922 31.529637 17.725212
2004-06-03 07:12:12 51°13.341 2°51.816 15.827172 3.998922 31.529637 17.725212
2004-06-03 07:12:17 51°13.339 2°51.813 15.830438 3.999027 31.532343 17.657794
2004-06-03 07:12:22 51°13.337 2°51.808 15.829879 3.999238 31.533602 17.624084
2004-06-03 07:12:27 51°13.335 2°51.804 15.831082 3.999027 31.531749 17.657794
2004-06-03 07:12:32 51°13.333 2°51.8 15.831211 3.999133 31.532083 17.590375
2004-06-03 07:12:37 51°13.332 2°51.796 15.829965 3.999027 31.531749 17.657794
2004-06-03 07:12:42 51°13.33 2°51.792 15.829965 3.999027 31.531749 17.657794
2004-06-03 07:12:47 51°13.328 2°51.788 15.830438 3.998816 31.528711 17.657794
2004-06-03 07:12:52 51°13.326 2°51.784 15.830653 3.998606 31.526858 17.725212
2004-06-03 07:12:57 51°13.324 2°51.78 15.830696 3.999133 31.530303 17.826341
2004-06-03 07:13:02 51°13.322 2°51.776 15.833876 3.998711 31.527191 17.792631
2004-06-03 07:13:08 51°13.319 2°51.772 15.83293 3.998816 31.528118 17.994888
2004-06-03 07:13:12 51°13.318 2°51.768 15.83293 3.998816 31.528118 17.994888
2004-06-03 07:13:17 51°13.316 2°51.765 15.831211 3.998711 31.527191 17.961178
2004-06-03 07:13:22 51°13.314 2°51.761 15.833919 3.9985 31.525339 18.096016
2004-06-03 07:13:24 51°13.313 2°51.759 15.834134 3.998711 31.526598 18.129725
2004-06-03 07:13:30 51°13.311 2°51.754 15.834005 3.998711 31.526005 18.129725
2004-06-03 07:13:36 51°13.309 2°51.749 15.834477 3.998711 31.526005 17.961178
2004-06-03 07:13:42 51°13.306 2°51.744 15.834477 3.998711 31.526005 17.961178
2004-06-03 07:13:44 51°13.305 2°51.743 15.836282 3.998605 31.524486 17.961178
2004-06-03 07:13:52 51°13.302 2°51.736 15.832629 3.998395 31.522041 17.994888
2004-06-03 07:13:56 51°13.301 2°51.733 15.833102 3.9985 31.522967 17.994888
2004-06-03 07:14:02 51°13.299 2°51.728 15.83379 3.998395 31.521448 17.927469
2004-06-03 07:14:04 51°13.298 2°51.727 15.834692 3.998605 31.522707 17.893759
2004-06-03 07:14:12 51°13.296 2°51.72 15.834692 3.998605 31.522707 17.893759
2004-06-03 07:14:17 51°13.293 2°51.716 15.833962 3.998395 31.520855 17.826341
2004-06-03 07:14:22 51°13.292 2°51.712 15.836454 3.993018 31.473626 17.826341
2004-06-03 07:14:25 51°13.291 2°51.71 15.834048 3.998605 31.523893 17.792631
2004-06-03 07:14:32 51°13.288 2°51.704 15.833833 3.998395 31.521448 17.826341
2004-06-03 07:14:37 51°13.286 2°51.701 15.839032 3.998395 31.521448 17.792631
2004-06-03 07:14:42 51°13.285 2°51.697 15.839032 3.998395 31.521448 17.792631
2004-06-03 07:14:44 51°13.284 2°51.695 15.836583 3.9985 31.521188 17.792631
2004-06-03 07:14:52 51°13.281 2°51.689 15.836282 3.998184 31.51841 17.826341
2004-06-03 07:14:56 51°13.28 2°51.685 15.833919 3.998184 31.519003 17.961178
2004-06-03 07:15:02 51°13.277 2°51.681 15.833833 3.998289 31.520522 17.994888
2004-06-03 07:15:04 51°13.277 2°51.679 15.835895 3.998184 31.51841 17.927469
2004-06-03 07:15:12 51°13.274 2°51.673 15.835895 3.998184 31.51841 17.927469
2004-06-03 07:15:17 51°13.272 2°51.669 15.838087 3.998289 31.519336 18.028597
2004-06-03 07:15:22 51°13.27 2°51.665 15.838431 3.998289 31.519929 17.994888
2004-06-03 07:15:25 51°13.269 2°51.663 15.836884 3.998078 31.518077 18.129725
2004-06-03 07:15:32 51°13.267 2°51.657 15.840794 3.998184 31.519596 18.129725
2004-06-03 07:15:37 51°13.265 2°51.654 15.837228 3.998289 31.519336 18.129725
2004-06-03 07:15:42 51°13.263 2°51.65 15.837228 3.998289 31.519336 18.129725
2004-06-03 07:15:44 51°13.262 2°51.648 15.838345 3.997867 31.514446 18.129725
2004-06-03 07:15:50 51°13.26 2°51.643 15.837099 3.998078 31.515706 18.129725
2004-06-03 07:15:56 51°13.258 2°51.639 15.836325 3.997973 31.51478 18.062306
2004-06-03 07:16:02 51°13.256 2°51.634 15.838431 3.997973 31.51478 18.129725
2004-06-03 07:16:04 51°13.256 2°51.632 15.839634 3.998078 31.516891 18.163435
2004-06-03 07:16:12 51°13.253 2°51.626 15.839634 3.998078 31.516891 18.163435
2004-06-03 07:16:16 51°13.251 2°51.623 15.841482 3.997973 31.515372 18.264563
2004-06-03 07:16:22 51°13.249 2°51.618 15.838259 3.997973 31.515372 18.197144
2004-06-03 07:16:24 51°13.248 2°51.617 15.84161 3.998184 31.51841 18.331982
2004-06-03 07:16:32 51°13.245 2°51.611 15.842126 3.997867 31.513854 18.298272
2004-06-03 07:16:37 51°13.244 2°51.607 15.838001 3.997867 31.512668 18.331982
2004-06-03 07:16:42 51°13.242 2°51.603 15.838001 3.997867 31.512668 18.331982
2004-06-03 07:16:45 51°13.241 2°51.6 15.838345 3.997867 31.512668 18.365691
2004-06-03 07:16:52 51°13.238 2°51.595 15.838817 3.997973 31.513002 18.43311
2004-06-03 07:16:57 51°13.236 2°51.591 15.839333 3.997867 31.512668 18.534238
2004-06-03 07:17:02 51°13.234 2°51.587 15.839247 3.997762 31.511742 18.567947
2004-06-03 07:17:04 51°13.234 2°51.586 15.84088 3.997657 31.510224 18.635366
2004-06-03 07:17:12 51°13.231 2°51.579 15.84088 3.997657 31.510224 18.635366
2004-06-03 07:17:16 51°13.23 2°51.576 15.841396 3.997657 31.512001 18.702785
2004-06-03 07:17:22 51°13.227 2°51.572 15.83886 3.997657 31.510816 18.736494
2004-06-03 07:17:24 51°13.226 2°51.57 15.838173 3.997657 31.511409 18.736494
2004-06-03 07:17:32 51°13.223 2°51.564 15.840064 3.997446 31.510149 18.837623
2004-06-03 07:17:37 51°13.222 2°51.56 15.8432 4.003666 31.564201 18.803913
2004-06-03 07:17:42 51°13.22 2°51.556 15.8432 4.003666 31.564201 18.803913
2004-06-03 07:17:45 51°13.219 2°51.554 15.84161 3.997446 31.509557 18.736494
2004-06-03 07:17:52 51°13.216 2°51.548 15.839677 3.99734 31.509223 18.770204
2004-06-03 07:17:57 51°13.215 2°51.544 15.841911 3.99734 31.509223 18.736494
2004-06-03 07:18:02 51°13.213 2°51.54 15.838989 3.997446 31.509557 18.837623
2004-06-03 07:18:05 51°13.212 2°51.538 15.840622 3.997551 31.508705 18.770204
2004-06-03 07:18:12 51°13.209 2°51.533 15.840622 3.997551 31.508705 18.770204
2004-06-03 07:18:17 51°13.208 2°51.529 15.840966 3.997551 31.509298 18.736494
2004-06-03 07:18:22 51°13.206 2°51.525 15.844876 3.997446 31.507779 18.770204
2004-06-03 07:18:25 51°13.205 2°51.522 15.841568 3.997446 31.508372 18.770204
2004-06-03 07:18:32 51°13.202 2°51.517 15.842427 3.997551 31.508705 18.837623
2004-06-03 07:18:37 51°13.201 2°51.513 15.84088 3.997551 31.509298 18.905042
2004-06-03 07:18:42 51°13.199 2°51.51 15.84088 3.997551 31.509298 18.905042
2004-06-03 07:18:44 51°13.198 2°51.508 15.844489 3.997657 31.508446 18.905042
2004-06-03 07:18:52 51°13.196 2°51.502 15.8429 3.997446 31.506594 18.97246
2004-06-03 07:18:56 51°13.194 2°51.499 15.84088 3.997551 31.50752 19.073589
2004-06-03 07:19:02 51°13.192 2°51.495 15.842942 3.99734 31.506853 19.107298
2004-06-03 07:19:04 51°13.191 2°51.493 15.845864 3.997235 31.50415 19.141007
2004-06-03 07:19:12 51°13.189 2°51.487 15.845864 3.997235 31.50415 19.141007
2004-06-03 07:19:17 51°13.187 2°51.483 15.845778 3.987958 31.422684 19.242136
2004-06-03 07:19:22 51°13.185 2°51.48 15.84247 3.988274 31.426642 19.309554
2004-06-03 07:19:25 51°13.184 2°51.477 15.843028 3.991437 31.453821 19.376973
2004-06-03 07:19:32 51°13.182 2°51.468 15.844532 3.988379 31.426386 19.309554
2004-06-03 07:19:37 51°13.18 2°51.46 15.840751 3.997024 31.501114 19.343264
2004-06-03 07:19:42 51°13.179 2°51.451 15.840751 3.997024 31.501114 19.343264
2004-06-03 07:19:45 51°13.178 2°51.444 15.842857 3.986271 31.406694 19.174717
2004-06-03 07:19:52 51°13.174 2°51.424 15.842126 3.985849 31.403582 19.309554
2004-06-03 07:19:56 51°13.172 2°51.41 15.843458 3.991964 31.457267 19.275845
2004-06-03 07:20:02 51°13.167 2°51.388 15.845907 3.985638 31.402912 19.208426
2004-06-03 07:20:07 51°13.163 2°51.367 15.844146 3.976783 31.324595 19.275845
2004-06-03 07:20:10 51°13.159 2°51.354 15.844146 3.976783 31.324595 19.275845
2004-06-03 07:20:17 51°13.15 2°51.321 15.84754 3.989434 31.436233 19.275845
2004-06-03 07:20:22 51°13.142 2°51.297 15.846681 3.985744 31.403247 19.309554
2004-06-03 07:20:26 51°13.136 2°51.276 15.846509 3.986903 31.413428 19.376973
2004-06-03 07:20:32 51°13.125 2°51.244 15.844403 3.98975 31.437828 19.343264
2004-06-03 07:20:37 51°13.117 2°51.217 15.84638 3.985217 31.397439 19.410683
2004-06-03 07:20:42 51°13.107 2°51.19 15.84638 3.985217 31.397439 19.410683
2004-06-03 07:20:46 51°13.1 2°51.167 15.844489 3.986903 31.411656 19.376973
2004-06-03 07:20:49 51°13.094 2°51.151 15.84797 3.989117 31.430501 19.376973
2004-06-03 07:20:57 51°13.079 2°51.106 15.846895 3.987852 31.418214 19.376973
2004-06-03 07:21:02 51°13.069 2°51.077 15.849516 3.989117 31.430501 19.275845
2004-06-03 07:21:05 51°13.064 2°51.06 15.852137 3.989855 31.43698 19.208426
2004-06-03 07:21:12 51°13.05 2°51.019 15.852137 3.989855 31.43698 19.208426
2004-06-03 07:21:16 51°13.042 2°50.997 15.859311 3.97731 31.326865 19.275845
2004-06-03 07:21:22 51°13.03 2°50.961 15.849774 3.98353 31.381453 19.57923
2004-06-03 07:21:26 51°13.022 2°50.939 15.856046 3.987536 31.415437 19.848905
2004-06-03 07:21:32 51°13.01 2°50.904 15.854285 3.979207 31.340572 19.882614
2004-06-03 07:21:37 51°12.999 2°50.875 15.845692 3.988379 31.418707 19.882614
2004-06-03 07:21:41 51°12.992 2°50.852 15.845692 3.988379 31.418707 19.882614
2004-06-03 07:21:47 51°12.979 2°50.817 15.849903 3.98743 31.409788 19.916324
2004-06-03 07:21:52 51°12.969 2°50.788 15.841568 3.976361 31.312653 20.11858
2004-06-03 07:21:56 51°12.961 2°50.765 15.844446 3.978259 31.329302 20.354546
2004-06-03 07:22:02 51°12.949 2°50.73 15.84406 3.986903 31.406933 20.590512
2004-06-03 07:22:06 51°12.941 2°50.706 15.849903 3.976888 31.320221 20.725349
2004-06-03 07:22:09 51°12.936 2°50.688 15.849903 3.976888 31.320221 20.725349
2004-06-03 07:22:17 51°12.919 2°50.642 15.85334 3.983846 31.383049 20.995024
2004-06-03 07:22:21 51°12.911 2°50.618 15.851621 3.989433 31.433869 21.197281
2004-06-03 07:22:28 51°12.897 2°50.577 15.852137 3.982686 31.37405 21.534375
2004-06-03 07:22:32 51°12.888 2°50.553 15.855015 3.986587 31.407699 21.905178
2004-06-03 07:22:37 51°12.879 2°50.524 15.855789 3.983741 31.380944 22.208563
2004-06-03 07:22:42 51°12.868 2°50.495 15.855789 3.983741 31.380944 22.208563
2004-06-03 07:22:46 51°12.86 2°50.471 15.857636 3.979945 31.345869 22.579366
2004-06-03 07:22:52 51°12.848 2°50.436 15.860428 3.974991 31.302983 22.781623
2004-06-03 07:22:56 51°12.84 2°50.412 15.863263 3.986692 31.404492 22.849042
2004-06-03 07:23:02 51°12.827 2°50.377 15.859096 3.977204 31.320052 22.882751
2004-06-03 07:23:07 51°12.818 2°50.347 15.865239 3.984795 31.385477 22.849042
2004-06-03 07:23:12 51°12.808 2°50.317 15.865239 3.984795 31.385477 22.849042
2004-06-03 07:23:17 51°12.798 2°50.287 15.860084 3.977837 31.322658 22.815332
2004-06-03 07:23:22 51°12.789 2°50.257 15.862232 3.967084 31.226584 22.849042
2004-06-03 07:23:26 51°12.782 2°50.233 15.867172 3.986903 31.40044 22.91646
2004-06-03 07:23:32 51°12.771 2°50.197 15.866442 3.978153 31.321901 23.017589
2004-06-03 07:23:37 51°12.761 2°50.167 15.867172 3.985849 31.38942 23.051298
2004-06-03 07:23:42 51°12.75 2°50.137 15.867172 3.985849 31.38942 23.051298
2004-06-03 07:23:47 51°12.741 2°50.107 15.867172 3.980789 31.344433 23.152426
2004-06-03 07:23:52 51°12.731 2°50.077 15.869191 3.98121 31.346954 22.95017
2004-06-03 07:23:57 51°12.72 2°50.048 15.87297 3.988063 31.407076 22.714204
2004-06-03 07:24:02 51°12.71 2°50.019 15.864638 3.987641 31.401606 22.444529
2004-06-03 07:24:07 51°12.7 2°49.989 15.867172 3.974252 31.283573 22.275982
2004-06-03 07:24:12 51°12.69 2°49.96 15.867172 3.974252 31.283573 22.275982
2004-06-03 07:24:17 51°12.68 2°49.93 15.872283 3.980894 31.340646 22.309691
2004-06-03 07:24:22 51°12.67 2°49.901 15.870952 3.97868 31.32064 22.37711
2004-06-03 07:24:27 51°12.66 2°49.871 15.875161 3.982475 31.355106 22.613076
2004-06-03 07:24:32 51°12.65 2°49.842 15.870565 3.974147 31.282061 22.781623
2004-06-03 07:24:37 51°12.64 2°49.812 15.866442 3.983319 31.360737 23.051298
2004-06-03 07:24:42 51°12.63 2°49.782 15.869105 3.964343 31.192588 23.253554
2004-06-03 07:24:44 51°12.626 2°49.77 15.869105 3.964343 31.192588 23.253554
2004-06-03 07:24:52 51°12.611 2°49.723 15.873314 3.978364 31.314337 23.556939
2004-06-03 07:24:57 51°12.601 2°49.693 15.876234 3.9635 31.18461 23.792905
2004-06-03 07:25:02 51°12.592 2°49.662 15.871338 3.971617 31.256352 23.927742
2004-06-03 07:25:05 51°12.586 2°49.645 15.870264 3.966346 31.211903 23.792905
2004-06-03 07:25:12 51°12.574 2°49.602 15.870264 3.966346 31.211903 23.792905
2004-06-03 07:25:16 51°12.566 2°49.579 15.874087 3.96856 31.230724 23.48952
2004-06-03 07:25:22 51°12.555 2°49.542 15.875633 3.975412 31.28904 23.085007
2004-06-03 07:25:26 51°12.548 2°49.517 15.874302 3.979629 31.326019 22.91646
2004-06-03 07:25:32 51°12.537 2°49.481 15.874001 3.966557 31.209647 22.849042
2004-06-03 07:25:37 51°12.528 2°49.45 15.870565 3.981843 31.343669 22.781623
2004-06-03 07:25:42 51°12.518 2°49.419 15.870565 3.981843 31.343669 22.781623
2004-06-03 07:25:45 51°12.513 2°49.4 15.86511 3.977626 31.308454 22.747913
2004-06-03 07:25:52 51°12.5 2°49.357 15.869835 3.978048 31.311563 22.646785
2004-06-03 07:25:57 51°12.49 2°49.326 15.866141 3.97499 31.284168 22.646785
2004-06-03 07:26:02 51°12.48 2°49.296 15.871639 3.969614 31.239379 22.242272
2004-06-03 07:26:07 51°12.471 2°49.266 15.861631 3.973198 31.271979 21.871469
2004-06-03 07:26:12 51°12.461 2°49.235 15.861631 3.973198 31.271979 21.871469
2004-06-03 07:26:16 51°12.453 2°49.211 15.857249 3.977204 31.308284 21.500665
2004-06-03 07:26:22 51°12.441 2°49.174 15.856605 3.976045 31.297526 20.995024
2004-06-03 07:26:26 51°12.433 2°49.15 15.856304 3.981948 31.350483 20.051161
2004-06-03 07:26:32 51°12.421 2°49.114 15.85712 3.978786 31.323919 19.309554
2004-06-03 07:26:37 51°12.412 2°49.084 15.856046 3.970879 31.257515 18.43311
2004-06-03 07:26:42 51°12.402 2°49.054 15.856046 3.970879 31.257515 18.43311
2004-06-03 07:26:44 51°12.398 2°49.042 15.855531 3.988063 31.408847 17.725212
2004-06-03 07:26:52 51°12.382 2°48.993 15.859612 3.98374 31.372688 17.253281
2004-06-03 07:26:57 51°12.372 2°48.963 15.86249 3.987641 31.407507 16.916187
2004-06-03 07:27:02 51°12.362 2°48.933 15.859011 3.987325 31.404731 16.781349
2004-06-03 07:27:07 51°12.351 2°48.904 15.86133 3.987219 31.404396 16.848768
2004-06-03 07:27:12 51°12.342 2°48.873 15.86133 3.987219 31.404396 16.848768
2004-06-03 07:27:17 51°12.331 2°48.843 15.862146 3.987114 31.404061 17.118443
2004-06-03 07:27:22 51°12.321 2°48.813 15.862232 3.986903 31.40103 17.489247
2004-06-03 07:27:27 51°12.31 2°48.784 15.861975 3.986798 31.399515 18.062306
2004-06-03 07:27:32 51°12.3 2°48.753 15.86249 3.986692 31.39682 18.635366
2004-06-03 07:27:36 51°12.292 2°48.729 15.864681 3.986481 31.3932 19.141007
2004-06-03 07:27:42 51°12.28 2°48.692 15.864681 3.986481 31.3932 19.141007
2004-06-03 07:27:45 51°12.274 2°48.674 15.862962 3.986481 31.39438 19.376973
2004-06-03 07:27:52 51°12.261 2°48.631 15.867387 3.986376 31.393455 19.54552
2004-06-03 07:27:57 51°12.251 2°48.6 15.865325 3.986165 31.390425 19.646648
2004-06-03 07:28:01 51°12.244 2°48.576 15.863993 3.98606 31.3895 19.747777
2004-06-03 07:28:07 51°12.231 2°48.54 15.867344 3.985743 31.386135 19.916324
2004-06-03 07:28:12 51°12.222 2°48.509 15.867344 3.985743 31.386135 19.916324
2004-06-03 07:28:17 51°12.212 2°48.479 15.86889 3.985216 31.381511 20.152289
2004-06-03 07:28:22 51°12.202 2°48.449 15.865969 3.9849 31.378146 20.421965
2004-06-03 07:28:26 51°12.193 2°48.425 15.869835 3.984373 31.373522 20.65793
2004-06-03 07:28:32 51°12.181 2°48.389 15.87297 3.984162 31.370493 20.759059
2004-06-03 07:28:37 51°12.171 2°48.358 15.868804 3.984373 31.371753 20.995024
2004-06-03 07:28:42 51°12.161 2°48.328 15.868804 3.984373 31.371753 20.995024
2004-06-03 07:28:47 51°12.15 2°48.298 15.871682 3.984584 31.373603 21.197281
2004-06-03 07:28:52 51°12.14 2°48.268 15.87035 3.984584 31.373014 21.332118
2004-06-03 07:28:57 51°12.129 2°48.239 15.875118 3.9849 31.37402 21.2647
2004-06-03 07:29:02 51°12.118 2°48.208 15.875676 3.985427 31.378054 21.096153
2004-06-03 07:29:06 51°12.11 2°48.184 15.879155 3.985638 31.380494 20.961315
2004-06-03 07:29:12 51°12.098 2°48.148 15.879155 3.985638 31.380494 20.961315
2004-06-03 07:29:17 51°12.089 2°48.118 15.876063 3.985638 31.379904 20.725349
2004-06-03 07:29:22 51°12.079 2°48.088 15.875118 3.985743 31.379061 20.556802
2004-06-03 07:29:27 51°12.069 2°48.057 15.878296 3.985954 31.379731 20.354546
2004-06-03 07:29:32 51°12.06 2°48.026 15.881989 3.986481 31.383765 20.287127
2004-06-03 07:29:37 51°12.051 2°47.995 15.882375 3.987219 31.38906 20.152289
2004-06-03 07:29:41 51°12.044 2°47.97 15.882375 3.987219 31.38906 20.152289
2004-06-03 07:29:45 51°12.037 2°47.946 15.880228 3.987746 31.394273 20.152289
2004-06-03 07:29:52 51°12.024 2°47.902 15.883835 3.987852 31.394608 20.287127
2004-06-03 07:29:57 51°12.014 2°47.871 15.882161 3.988379 31.398053 20.219708
2004-06-03 07:30:02 51°12.004 2°47.841 15.881602 3.988906 31.400907 20.152289
2004-06-03 07:30:04 51°12 2°47.828 15.884007 3.989433 31.40612 20.219708
2004-06-03 07:30:12 51°11.985 2°47.78 15.884007 3.989433 31.40612 20.219708
2004-06-03 07:30:17 51°11.974 2°47.75 15.879756 3.990171 31.410234 20.253418
2004-06-03 07:30:22 51°11.964 2°47.719 15.879326 3.990698 31.415448 20.084871
2004-06-03 07:30:27 51°11.954 2°47.689 15.881559 3.991225 31.419482 20.017452
2004-06-03 07:30:32 51°11.943 2°47.659 15.880787 3.991331 31.420406 19.781486
2004-06-03 07:30:37 51°11.933 2°47.629 15.880572 3.991647 31.423771 19.612939
2004-06-03 07:30:40 51°11.927 2°47.611 15.880572 3.991647 31.423771 19.612939
2004-06-03 07:30:47 51°11.912 2°47.57 15.881903 3.991858 31.426801 19.343264
2004-06-03 07:30:52 51°11.901 2°47.54 15.880142 3.992069 31.42806 18.97246
2004-06-03 07:30:57 51°11.89 2°47.51 15.887013 3.991858 31.427981 18.770204
2004-06-03 07:31:02 51°11.88 2°47.48 15.886455 3.991858 31.426801 18.43311
2004-06-03 07:31:07 51°11.87 2°47.45 15.887829 3.991963 31.427725 18.230853
2004-06-03 07:31:10 51°11.864 2°47.431 15.887829 3.991963 31.427725 18.230853
2004-06-03 07:31:22 51°11.842 2°47.357 15.889117 3.992596 31.432684 17.691503
2004-06-03 07:31:27 51°11.832 2°47.327 15.889632 3.99249 31.429989 17.556665
2004-06-03 07:31:32 51°11.823 2°47.296 15.88813 3.992596 31.429733 17.590375
2004-06-03 07:31:36 51°11.815 2°47.271 15.889031 3.992912 31.431917 17.624084
2004-06-03 07:31:42 51°11.804 2°47.235 15.889031 3.992912 31.431917 17.624084
2004-06-03 07:31:46 51°11.796 2°47.21 15.889418 3.992806 31.430992 17.725212
2004-06-03 07:31:52 51°11.784 2°47.174 15.886884 3.993017 31.431071 17.725212
2004-06-03 07:31:56 51°11.776 2°47.149 15.890491 3.993123 31.431996 17.792631
2004-06-03 07:32:02 51°11.764 2°47.113 15.888215 3.993123 31.431996 17.927469
2004-06-03 07:32:07 51°11.754 2°47.083 15.886455 3.993334 31.433255 18.062306
2004-06-03 07:32:12 51°11.744 2°47.054 15.886455 3.993334 31.433255 18.062306
2004-06-03 07:32:17 51°11.733 2°47.023 15.884437 3.974041 31.264692 18.197144
2004-06-03 07:32:22 51°11.723 2°46.993 15.884823 3.981948 31.333412 18.365691
2004-06-03 07:32:25 51°11.718 2°46.975 15.888044 3.987008 31.37837 18.3994
2004-06-03 07:32:32 51°11.704 2°46.933 15.887099 3.977731 31.298208 18.466819
2004-06-03 07:32:37 51°11.694 2°46.902 15.887786 3.988062 31.390562 18.669076
2004-06-03 07:32:42 51°11.684 2°46.872 15.887786 3.988062 31.390562 18.669076
2004-06-03 07:32:47 51°11.675 2°46.842 15.877995 3.978785 31.308626 18.905042
2004-06-03 07:32:52 51°11.665 2°46.811 15.879928 3.983318 31.346016 19.00617
2004-06-03 07:32:57 51°11.655 2°46.781 15.884866 3.9849 31.356349 22.849042
2004-06-03 07:33:02 51°11.646 2°46.751 15.890362 3.984056 31.346601 24.399674
2004-06-03 07:33:05 51°11.64 2°46.733 15.885682 3.978785 31.302748 23.658067
2004-06-03 07:33:12 51°11.625 2°46.691 15.885682 3.978785 31.302748 23.658067
2004-06-03 07:33:17 51°11.616 2°46.661 15.886154 3.997234 31.467471 22.983879
2004-06-03 07:33:22 51°11.605 2°46.631 15.888817 3.990276 31.4088 22.107435
2004-06-03 07:33:26 51°11.597 2°46.607 15.893454 3.988695 31.391983 21.399537
2004-06-03 07:33:32 51°11.585 2°46.571 15.882418 3.982686 31.338117 20.792768
2004-06-03 07:33:37 51°11.575 2°46.541 15.879756 3.982475 31.336269 20.826477
2004-06-03 07:33:42 51°11.565 2°46.511 15.879756 3.982475 31.336269 20.826477
2004-06-03 07:33:47 51°11.556 2°46.48 15.879026 3.99112 31.411478 20.792768
2004-06-03 07:33:52 51°11.547 2°46.449 15.878811 3.982686 31.336352 20.860187
2004-06-03 07:33:56 51°11.54 2°46.424 15.891994 3.98374 31.345594 20.624221
2004-06-03 07:34:02 51°11.529 2°46.388 15.888044 3.982791 31.337276 20.455674
2004-06-03 07:34:07 51°11.519 2°46.357 15.888859 3.993544 31.435104 20.185999
2004-06-03 07:34:12 51°11.51 2°46.327 15.888859 3.993544 31.435104 20.185999
2004-06-03 07:34:17 51°11.5 2°46.297 15.890963 3.984583 31.357697 19.983742
2004-06-03 07:34:22 51°11.49 2°46.267 15.879971 3.985321 31.362402 19.714067
2004-06-03 07:34:27 51°11.481 2°46.236 15.880872 3.990593 31.406856 19.680358
2004-06-03 07:34:32 51°11.471 2°46.206 15.881044 3.990698 31.407191 19.612939
2004-06-03 07:34:37 51°11.462 2°46.176 15.880142 3.983424 31.341645 19.612939
2004-06-03 07:34:42 51°11.451 2°46.146 15.880142 3.983424 31.341645 19.612939
2004-06-03 07:34:47 51°11.442 2°46.116 15.879026 3.99133 31.412738 19.747777
2004-06-03 07:34:52 51°11.432 2°46.085 15.882805 3.977099 31.290314 19.916324
2004-06-03 07:34:56 51°11.424 2°46.061 15.877394 3.985005 31.360806 19.882614
2004-06-03 07:35:02 51°11.412 2°46.025 15.877566 3.990065 31.404592 19.882614
2004-06-03 07:35:07 51°11.403 2°45.995 15.877909 3.992385 31.424933 19.916324
2004-06-03 07:35:12 51°11.393 2°45.965 15.877909 3.992385 31.424933 19.916324
2004-06-03 07:35:17 51°11.383 2°45.935 15.887185 3.995231 31.450491 19.714067
2004-06-03 07:35:22 51°11.374 2°45.904 15.882719 3.994072 31.440318 19.444392
2004-06-03 07:35:26 51°11.367 2°45.879 15.879198 3.994493 31.445789 19.00617
2004-06-03 07:35:32 51°11.356 2°45.843 15.87486 3.98237 31.340051 18.635366
2004-06-03 07:35:37 51°11.346 2°45.813 15.872068 3.985849 31.369379 18.197144
2004-06-03 07:35:42 51°11.337 2°45.782 15.872068 3.985849 31.369379 18.197144
2004-06-03 07:35:47 51°11.327 2°45.751 15.873572 3.987219 31.380808 17.792631
2004-06-03 07:35:52 51°11.319 2°45.72 15.873572 3.998394 31.479418 17.522956
2004-06-03 07:35:57 51°11.309 2°45.69 15.872884 3.991014 31.415862 17.522956
2004-06-03 07:36:01 51°11.302 2°45.665 15.870737 3.99365 31.441933 17.522956
2004-06-03 07:36:07 51°11.291 2°45.628 15.870651 4.002189 31.517453 17.489247
2004-06-03 07:36:12 51°11.282 2°45.598 15.870651 4.002189 31.517453 17.489247
2004-06-03 07:36:17 51°11.272 2°45.568 15.874001 4.004403 31.536883 17.590375
2004-06-03 07:36:22 51°11.262 2°45.538 15.868503 3.992596 31.433865 17.826341
2004-06-03 07:36:27 51°11.253 2°45.507 15.871854 4.012732 31.611183 18.365691
2004-06-03 07:36:32 51°11.243 2°45.478 15.87267 4.015895 31.63836 18.669076
2004-06-03 07:36:37 51°11.234 2°45.447 15.867473 4.01716 31.650658 18.871332
2004-06-03 07:36:42 51°11.224 2°45.417 15.867473 4.01716 31.650658 18.871332
2004-06-03 07:36:46 51°11.216 2°45.393 15.866528 4.017898 31.658329 19.073589
2004-06-03 07:36:52 51°11.205 2°45.357 15.868203 4.017476 31.653436 19.073589
2004-06-03 07:36:56 51°11.197 2°45.333 15.861932 4.018425 31.66058 18.905042
2004-06-03 07:37:02 51°11.186 2°45.296 15.862232 4.020639 31.682999 19.107298
2004-06-03 07:37:07 51°11.177 2°45.266 15.859397 4.021693 31.69345 19.174717
2004-06-03 07:37:12 51°11.168 2°45.235 15.859397 4.021693 31.69345 19.174717
2004-06-03 07:37:17 51°11.16 2°45.204 15.858495 4.02222 31.699868 19.410683
2004-06-03 07:37:22 51°11.152 2°45.174 15.8737 4.022958 31.706947 19.208426
2004-06-03 07:37:25 51°11.147 2°45.155 15.865626 4.024223 31.718658 19.174717
2004-06-03 07:37:32 51°11.135 2°45.112 15.875032 4.02454 31.723821 18.97246
2004-06-03 07:37:37 51°11.126 2°45.081 15.877995 4.025489 31.732755 19.107298
2004-06-03 07:37:42 51°11.117 2°45.051 15.877995 4.025489 31.732755 19.107298
2004-06-03 07:37:44 51°11.113 2°45.04 15.861115 4.026648 31.741753 19.309554
2004-06-03 07:37:51 51°11.099 2°44.999 15.863478 4.027703 31.749228 19.646648
2004-06-03 07:37:57 51°11.086 2°44.964 15.868289 4.028757 31.757299 19.54552
2004-06-03 07:38:02 51°11.075 2°44.935 15.86133 4.029284 31.759544 19.242136
2004-06-03 07:38:07 51°11.064 2°44.906 15.867086 4.030338 31.767018 18.770204
2004-06-03 07:38:12 51°11.053 2°44.877 15.867086 4.030338 31.767018 18.770204
2004-06-03 07:38:17 51°11.043 2°44.848 15.861846 4.030549 31.772452 18.298272
2004-06-03 07:38:22 51°11.033 2°44.82 15.861029 4.031076 31.777681 17.657794
2004-06-03 07:38:27 51°11.024 2°44.789 15.861158 4.031182 31.779802 17.28699
2004-06-03 07:38:32 51°11.015 2°44.758 15.865024 4.031182 31.779205 16.916187
2004-06-03 07:38:37 51°11.008 2°44.727 15.871897 4.031498 31.781387 16.579093
2004-06-03 07:38:42 51°11.001 2°44.695 15.871897 4.031498 31.781387 16.579093
2004-06-03 07:38:44 51°10.999 2°44.682 15.877179 4.031603 31.782314 16.376836
2004-06-03 07:38:52 51°10.99 2°44.631 15.866528 4.031287 31.78252 16.241999
2004-06-03 07:38:57 51°10.984 2°44.599 15.867043 4.031709 31.786824 16.17458
2004-06-03 07:39:02 51°10.979 2°44.567 15.873185 4.031814 31.785959 16.073452
2004-06-03 07:39:06 51°10.974 2°44.541 15.862962 4.031603 31.781717 15.803777
2004-06-03 07:39:12 51°10.967 2°44.502 15.862962 4.031603 31.781717 15.803777
2004-06-03 07:39:17 51°10.96 2°44.47 15.863822 4.032236 31.786082 15.770067
2004-06-03 07:39:21 51°10.955 2°44.444 15.860084 4.032236 31.786679 15.702648
2004-06-03 07:39:28 51°10.946 2°44.4 15.859397 4.032868 31.791641 15.770067
2004-06-03 07:39:32 51°10.939 2°44.375 15.849989 4.031498 31.781985 15.938614
2004-06-03 07:39:37 51°10.932 2°44.343 15.850075 4.033185 31.79681 16.107161
2004-06-03 07:39:42 51°10.924 2°44.312 15.850075 4.033185 31.79681 16.107161
2004-06-03 07:39:45 51°10.92 2°44.293 15.861416 4.033185 31.798602 16.477965
2004-06-03 07:39:52 51°10.909 2°44.25 15.862232 4.032763 31.794896 17.017315
2004-06-03 07:39:57 51°10.901 2°44.218 15.858366 4.032658 31.798152 17.522956
2004-06-03 07:40:02 51°10.893 2°44.187 15.853984 4.032763 31.802665 17.826341
2004-06-03 07:40:07 51°10.886 2°44.155 15.84827 4.032552 31.800811 18.129725
2004-06-03 07:40:12 51°10.879 2°44.123 15.84827 4.032552 31.800811 18.129725
2004-06-03 07:40:17 51°10.873 2°44.091 15.859268 4.032763 31.803262 18.3994
2004-06-03 07:40:22 51°10.866 2°44.059 15.851535 4.03329 31.806103 18.500529
2004-06-03 07:40:27 51°10.86 2°44.027 15.852867 4.033818 31.810738 18.702785
2004-06-03 07:40:32 51°10.855 2°43.995 15.856863 4.034239 31.815043 18.938751
2004-06-03 07:40:36 51°10.85 2°43.969 15.848657 4.035294 31.824313 19.275845
2004-06-03 07:40:41 51°10.844 2°43.937 15.848657 4.035294 31.824313 19.275845
2004-06-03 07:40:47 51°10.836 2°43.898 15.850805 4.035294 31.825509 19.478101
2004-06-03 07:40:52 51°10.83 2°43.866 15.85755 4.035821 31.828948 19.511811
2004-06-03 07:40:57 51°10.822 2°43.835 15.848571 4.036348 31.834181 19.478101
2004-06-03 07:41:02 51°10.815 2°43.803 15.845048 4.03698 31.838546 19.410683
2004-06-03 07:41:05 51°10.81 2°43.784 15.852652 4.037297 31.843123 19.376973
2004-06-03 07:41:12 51°10.8 2°43.74 15.852652 4.037297 31.843123 19.376973
2004-06-03 07:41:17 51°10.791 2°43.709 15.855703 4.037718 31.848029 19.309554
2004-06-03 07:41:22 51°10.784 2°43.678 15.864724 4.038246 31.853263 19.343264
2004-06-03 07:41:26 51°10.777 2°43.653 15.859397 4.038456 31.856315 19.376973
2004-06-03 07:41:32 51°10.769 2°43.615 15.853898 4.038562 31.85844 19.141007
2004-06-03 07:41:37 51°10.762 2°43.583 15.8737 4.038456 31.856914 18.905042
2004-06-03 07:41:42 51°10.755 2°43.551 15.8737 4.038456 31.856914 18.905042
2004-06-03 07:41:47 51°10.749 2°43.519 15.858452 4.039089 31.858884 18.702785
2004-06-03 07:41:52 51°10.743 2°43.487 15.852352 4.039616 31.861124 18.466819
2004-06-03 07:41:57 51°10.738 2°43.454 15.84797 4.040249 31.866687 18.096016
2004-06-03 07:42:02 51°10.732 2°43.422 15.838431 4.04067 31.870994 17.691503
2004-06-03 07:42:07 51°10.727 2°43.391 15.839806 4.04183 31.879396 17.624084
2004-06-03 07:42:12 51°10.721 2°43.359 15.839806 4.04183 31.879396 17.624084
2004-06-03 07:42:17 51°10.715 2°43.327 15.833102 4.043095 31.889922 17.590375
2004-06-03 07:42:22 51°10.707 2°43.296 15.835895 4.04436 31.904647 17.624084
2004-06-03 07:42:25 51°10.704 2°43.277 15.834993 4.044888 31.911683 17.556665
2004-06-03 07:42:32 51°10.693 2°43.234 15.822573 4.045942 31.924558 17.421828
2004-06-03 07:42:37 51°10.685 2°43.203 15.827172 4.046785 31.935582 17.185862
2004-06-03 07:42:42 51°10.678 2°43.172 15.827172 4.046785 31.935582 17.185862
2004-06-03 07:42:47 51°10.67 2°43.141 15.823174 4.047102 31.941368 16.916187
2004-06-03 07:42:52 51°10.664 2°43.11 15.827386 4.046996 31.942843 16.646512
2004-06-03 07:42:57 51°10.657 2°43.078 15.819091 4.047524 31.949886 16.612802
2004-06-03 07:43:01 51°10.652 2°43.053 15.817673 4.048051 31.957532 16.71393
2004-06-03 07:43:05 51°10.646 2°43.028 15.817673 4.048894 31.96676 16.71393
2004-06-03 07:43:12 51°10.638 2°42.983 15.817673 4.048894 31.96676 16.71393
2004-06-03 07:43:17 51°10.632 2°42.952 15.811053 4.049527 31.972329 16.545383
2004-06-03 07:43:22 51°10.626 2°42.92 15.810795 4.050265 31.98003 16.343127
2004-06-03 07:43:26 51°10.621 2°42.894 15.811698 4.051108 31.989262 16.073452
2004-06-03 07:43:29 51°10.617 2°42.875 15.814277 4.051741 31.996638 15.702648
2004-06-03 07:43:37 51°10.606 2°42.825 15.813976 4.052374 32.003413 15.500392
2004-06-03 07:43:42 51°10.599 2°42.793 15.813976 4.052374 32.003413 15.500392
2004-06-03 07:43:45 51°10.595 2°42.774 15.811053 4.053112 32.011117 15.331845
2004-06-03 07:43:52 51°10.584 2°42.731 15.817759 4.053955 32.019148 15.06217
2004-06-03 07:43:57 51°10.576 2°42.7 15.81634 4.054588 32.025925 14.859913
2004-06-03 07:44:02 51°10.569 2°42.668 15.812687 4.05522 32.0321 14.657657
2004-06-03 07:44:06 51°10.563 2°42.643 15.811698 4.055748 32.037949 14.556529
2004-06-03 07:44:12 51°10.554 2°42.606 15.811698 4.055748 32.037949 14.556529
2004-06-03 07:44:17 51°10.546 2°42.575 15.810021 4.056486 32.043245 14.4554
2004-06-03 07:44:22 51°10.539 2°42.543 15.805722 4.057329 32.050675 14.48911
2004-06-03 07:44:28 51°10.531 2°42.505 15.804519 4.058383 32.061169 14.657657
2004-06-03 07:44:32 51°10.526 2°42.479 15.80095 4.059227 32.0686 14.893623
2004-06-03 07:44:37 51°10.52 2°42.447 15.794587 4.06007 32.076635 15.129589
2004-06-03 07:44:42 51°10.514 2°42.416 15.794587 4.06007 32.076635 15.129589
2004-06-03 07:44:46 51°10.509 2°42.39 15.796178 4.060914 32.085275 15.399264
2004-06-03 07:44:49 51°10.506 2°42.371 15.793039 4.061546 32.093869 15.63523
2004-06-03 07:44:57 51°10.496 2°42.319 15.792695 4.062284 32.101582 15.871195
2004-06-03 07:45:02 51°10.49 2°42.287 15.785212 4.062812 32.111064 16.17458
2004-06-03 07:45:07 51°10.483 2°42.255 15.789728 4.063233 32.114781 16.275708
2004-06-03 07:45:12 51°10.476 2°42.224 15.789728 4.063233 32.114781 16.275708
2004-06-03 07:45:16 51°10.47 2°42.199 15.789126 4.063761 32.121243 16.477965
2004-06-03 07:45:22 51°10.461 2°42.161 15.786976 4.063971 32.124311 16.545383
2004-06-03 07:45:27 51°10.454 2°42.129 15.789255 4.064182 32.131011 16.545383
2004-06-03 07:45:32 51°10.446 2°42.098 15.783363 4.063972 32.132783 16.612802
2004-06-03 07:45:37 51°10.439 2°42.066 15.784696 4.063761 32.130924 16.545383
2004-06-03 07:45:42 51°10.431 2°42.035 15.784696 4.063761 32.130924 16.545383
2004-06-03 07:45:45 51°10.427 2°42.015 15.787492 4.06355 32.130275 16.545383
2004-06-03 07:45:52 51°10.417 2°41.971 15.787277 4.063761 32.133345 16.511674
2004-06-03 07:45:57 51°10.41 2°41.939 15.787277 4.063972 32.137021 16.477965
2004-06-03 07:46:02 51°10.402 2°41.907 15.785212 4.063972 32.137626 16.410546
2004-06-03 07:46:07 51°10.394 2°41.876 15.786675 4.063866 32.136091 16.376836
2004-06-03 07:46:12 51°10.387 2°41.844 15.786675 4.063866 32.136091 16.376836
2004-06-03 07:46:17 51°10.379 2°41.813 15.791362 4.063866 32.135485 16.376836
2004-06-03 07:46:22 51°10.372 2°41.781 15.789513 4.063655 32.134231 16.343127
2004-06-03 07:46:25 51°10.368 2°41.762 15.787879 4.063655 32.133626 16.343127
2004-06-03 07:46:32 51°10.357 2°41.718 15.785728 4.063444 32.132372 16.309418
2004-06-03 07:46:37 51°10.35 2°41.686 15.79592 4.063339 32.130836 16.241999
2004-06-03 07:46:42 51°10.343 2°41.655 15.79592 4.063339 32.130836 16.241999
2004-06-03 07:46:47 51°10.338 2°41.622 15.783578 4.06355 32.13088 16.17458
2004-06-03 07:46:52 51°10.331 2°41.59 15.784309 4.064077 32.136134 16.073452
2004-06-03 07:46:57 51°10.324 2°41.559 15.78246 4.064604 32.141389 15.938614
2004-06-03 07:47:02 51°10.317 2°41.527 15.78418 4.06492 32.143573 15.803777
2004-06-03 07:47:07 51°10.31 2°41.495 15.785728 4.065553 32.149152 15.736358
2004-06-03 07:47:12 51°10.304 2°41.463 15.785728 4.065553 32.149152 15.736358
2004-06-03 07:47:17 51°10.297 2°41.432 15.78246 4.06608 32.155013 15.770067
2004-06-03 07:47:22 51°10.29 2°41.399 15.783922 4.066291 32.158084 15.770067
2004-06-03 07:47:26 51°10.284 2°41.374 15.784825 4.066818 32.163946 15.938614
2004-06-03 07:47:32 51°10.277 2°41.336 15.777944 4.067135 32.166736 15.972324
2004-06-03 07:47:37 51°10.27 2°41.304 15.779364 4.06724 32.167666 16.107161
2004-06-03 07:47:42 51°10.263 2°41.272 15.779364 4.06724 32.167666 16.107161
2004-06-03 07:47:47 51°10.256 2°41.24 15.778116 4.067451 32.170132 16.006033
2004-06-03 07:47:52 51°10.249 2°41.209 15.780224 4.067556 32.171669 16.039742
2004-06-03 07:47:57 51°10.242 2°41.177 15.780912 4.067873 32.175065 15.904905
2004-06-03 07:48:01 51°10.236 2°41.152 15.773643 4.068505 32.181859 15.904905
2004-06-03 07:48:04 51°10.231 2°41.133 15.770331 4.068716 32.185539 15.837486
2004-06-03 07:48:12 51°10.219 2°41.083 15.770331 4.068716 32.185539 15.837486
2004-06-03 07:48:17 51°10.212 2°41.052 15.768181 4.069243 32.19019 15.702648
2004-06-03 07:48:22 51°10.205 2°41.021 15.768181 4.069349 32.191727 15.63523
2004-06-03 07:48:26 51°10.199 2°40.995 15.773342 4.069876 32.196985 15.534101
2004-06-03 07:48:29 51°10.195 2°40.977 15.765729 4.070298 32.202527 15.399264
2004-06-03 07:48:37 51°10.184 2°40.926 15.76461 4.071036 32.211468 15.264426
2004-06-03 07:48:42 51°10.177 2°40.894 15.76461 4.071036 32.211468 15.264426
2004-06-03 07:48:45 51°10.173 2°40.875 15.762761 4.071879 32.220127 15.129589
2004-06-03 07:48:52 51°10.164 2°40.83 15.760352 4.071879 32.220734 15.095879
2004-06-03 07:48:57 51°10.157 2°40.798 15.763449 4.072617 32.227248 14.893623
2004-06-03 07:49:02 51°10.151 2°40.767 15.759362 4.073039 32.232793 14.927332
2004-06-03 07:49:07 51°10.144 2°40.735 15.760309 4.073461 32.237731 14.792494
2004-06-03 07:49:12 51°10.136 2°40.704 15.760309 4.073461 32.237731 14.792494
2004-06-03 07:49:17 51°10.129 2°40.673 15.759061 4.073461 32.240163 14.758785
2004-06-03 07:49:22 51°10.122 2°40.641 15.756566 4.073777 32.243563 14.691366
2004-06-03 07:49:25 51°10.117 2°40.622 15.758545 4.074304 32.248825 14.623947
2004-06-03 07:49:32 51°10.108 2°40.578 15.761943 4.07441 32.250972 14.556529
2004-06-03 07:49:37 51°10.102 2°40.546 15.754242 4.074621 32.254051 14.48911
2004-06-03 07:49:42 51°10.095 2°40.515 15.754242 4.074621 32.254051 14.48911
2004-06-03 07:49:45 51°10.092 2°40.496 15.75278 4.075042 32.257774 14.48911
2004-06-03 07:49:52 51°10.083 2°40.451 15.750714 4.075359 32.261176 14.48911
2004-06-03 07:49:56 51°10.077 2°40.426 15.750499 4.075253 32.259028 14.354272
2004-06-03 07:50:02 51°10.069 2°40.388 15.752392 4.075991 32.266153 14.320563
2004-06-03 07:50:07 51°10.063 2°40.356 15.753167 4.076097 32.269518 14.354272
2004-06-03 07:50:12 51°10.055 2°40.325 15.753167 4.076097 32.269518 14.354272
2004-06-03 07:50:17 51°10.048 2°40.294 15.752909 4.076413 32.273529 14.286853
2004-06-03 07:50:22 51°10.041 2°40.262 15.749295 4.076624 32.276608 14.286853
2004-06-03 07:50:27 51°10.033 2°40.231 15.749682 4.07673 32.278757 14.219435
2004-06-03 07:50:32 51°10.027 2°40.2 15.751575 4.077046 32.280942 14.219435
2004-06-03 07:50:37 51°10.02 2°40.168 15.74895 4.077151 32.282482 14.152016
2004-06-03 07:50:42 51°10.013 2°40.137 15.74895 4.077151 32.282482 14.152016
2004-06-03 07:50:47 51°10.006 2°40.105 15.746928 4.077678 32.287747 14.152016
2004-06-03 07:50:52 51°9.999 2°40.073 15.741549 4.077889 32.28961 14.084597
2004-06-03 07:50:56 51°9.994 2°40.048 15.74383 4.077995 32.291759 14.050888
2004-06-03 07:51:02 51°9.986 2°40.01 15.745078 4.078417 32.296093 14.050888
2004-06-03 07:51:07 51°9.979 2°39.979 15.743615 4.078417 32.298531 14.017178
2004-06-03 07:51:12 51°9.972 2°39.948 15.743615 4.078417 32.298531 14.017178
2004-06-03 07:51:16 51°9.967 2°39.922 15.73858 4.078733 32.300715 14.017178
2004-06-03 07:51:22 51°9.958 2°39.885 15.739957 4.078838 32.302256 14.050888
2004-06-03 07:51:28 51°9.95 2°39.847 15.739957 4.078733 32.301325 14.017178
2004-06-03 07:51:32 51°9.944 2°39.822 15.739355 4.079155 32.306879 13.983469
2004-06-03 07:51:37 51°9.937 2°39.791 15.737375 4.07926 32.30903 14.050888
2004-06-03 07:51:42 51°9.93 2°39.759 15.737375 4.07926 32.30903 14.050888
2004-06-03 07:51:47 51°9.922 2°39.728 15.741592 4.078944 32.305626 14.017178
2004-06-03 07:51:52 51°9.915 2°39.697 15.740861 4.079049 32.307776 14.050888
2004-06-03 07:51:57 51°9.909 2°39.665 15.737332 4.079366 32.31179 14.084597
2004-06-03 07:52:02 51°9.902 2°39.634 15.734363 4.079576 32.314263 14.118306
2004-06-03 07:52:06 51°9.897 2°39.609 15.736256 4.079471 32.313331 14.219435
2004-06-03 07:52:12 51°9.889 2°39.571 15.736256 4.079471 32.313331 14.219435
2004-06-03 07:52:16 51°9.883 2°39.546 15.735912 4.079682 32.315195 14.253144
2004-06-03 07:52:22 51°9.875 2°39.508 15.73759 4.079998 32.318599 14.253144
2004-06-03 07:52:27 51°9.868 2°39.477 15.737848 4.080104 32.320141 14.320563
2004-06-03 07:52:32 51°9.862 2°39.445 15.736041 4.080315 32.323834 14.387982
2004-06-03 07:52:37 51°9.855 2°39.413 15.737805 4.079998 32.320429 14.4554
2004-06-03 07:52:42 51°9.848 2°39.381 15.737805 4.079998 32.320429 14.4554
2004-06-03 07:52:45 51°9.844 2°39.362 15.733631 4.080104 32.321971 14.556529
2004-06-03 07:52:52 51°9.835 2°39.318 15.73518 4.079998 32.320429 14.657657
2004-06-03 07:52:57 51°9.828 2°39.286 15.736428 4.080209 32.322292 14.758785
2004-06-03 07:53:02 51°9.823 2°39.254 15.736256 4.079893 32.319497 14.994751
2004-06-03 07:53:06 51°9.819 2°39.227 15.733115 4.080631 32.326629 14.994751
2004-06-03 07:53:12 51°9.816 2°39.188 15.733115 4.080631 32.326629 14.994751
2004-06-03 07:53:17 51°9.814 2°39.155 15.736471 4.080631 32.326629 15.095879
2004-06-03 07:53:22 51°9.813 2°39.122 15.736644 4.080842 32.328493 15.095879
2004-06-03 07:53:27 51°9.813 2°39.088 15.732383 4.081158 32.331288 15.06217
2004-06-03 07:53:32 51°9.815 2°39.056 15.736644 4.081053 32.330356 14.994751
2004-06-03 07:53:36 51°9.817 2°39.029 15.740215 4.081369 32.333151 14.961042
2004-06-03 07:53:42 51°9.821 2°38.991 15.740215 4.081369 32.333151 14.961042
2004-06-03 07:53:47 51°9.824 2°38.958 15.732598 4.081791 32.335048 14.657657
2004-06-03 07:53:52 51°9.827 2°38.925 15.731823 4.081791 32.336268 14.522819